Observation data for Amarillo 15 North Northwest on 03/14/2018      Previous  Date  Next       Current Mesonet Observations  Soil Data  Daily Summary Page  Observations in Plain Language
KAM3 140500Z 14008KT 06/M08 A3028 RMK A01 T00571075  RH  038%=      5-min Rain = 0
KAM3 140501Z 14009KT 06/M08 A3028 RMK A01 T00561075  RH  038%=      5-min Rain = 0
KAM3 140502Z 13009KT 06/M08 A3028 RMK A01 T00561075  RH  038%=      5-min Rain = 0
KAM3 140503Z 13009KT 06/M07 A3028 RMK A01 T00561074  RH  039%=      5-min Rain = 0
KAM3 140504Z 14010KT 06/M08 A3028 RMK A01 T00551075  RH  039%=      5-min Rain = 0
KAM3 140505Z 13009KT 06/M08 A3028 RMK A01 T00551075  RH  039%=      5-min Rain = 0
KAM3 140506Z 13008KT 06/M08 A3028 RMK A01 T00551075  RH  039%=      5-min Rain = 0
KAM3 140507Z 14009KT 05/M08 A3028 RMK A01 T00541075  RH  039%=      5-min Rain = 0
KAM3 140508Z 14009KT 05/M08 A3028 RMK A01 T00531075  RH  039%=      5-min Rain = 0
KAM3 140509Z 14009KT 05/M08 A3028 RMK A01 T00521075  RH  039%=      5-min Rain = 0
KAM3 140510Z 14009KT 05/M08 A3028 RMK A01 T00521075  RH  039%=      5-min Rain = 0
KAM3 140511Z 14009KT 05/M08 A3028 RMK A01 T00521075  RH  039%=      5-min Rain = 0
KAM3 140512Z 14010KT 05/M08 A3028 RMK A01 T00511075  RH  039%=      5-min Rain = 0
KAM3 140513Z 14010KT 05/M08 A3028 RMK A01 T00511075  RH  040%=      5-min Rain = 0
KAM3 140514Z 14010KT 05/M08 A3028 RMK A01 T00511075  RH  040%=      5-min Rain = 0
KAM3 140515Z 14010KT 05/M08 A3028 RMK A01 T00521075  RH  040%=      5-min Rain = 0
KAM3 140516Z 14010KT 05/M07 A3028 RMK A01 T00531074  RH  040%=      5-min Rain = 0
KAM3 140517Z 14010KT 05/M07 A3028 RMK A01 T00531074  RH  039%=      5-min Rain = 0
KAM3 140518Z 14011KT 05/M08 A3028 RMK A01 T00531075  RH  039%=      5-min Rain = 0
KAM3 140519Z 14010KT 05/M07 A3028 RMK A01 T00531074  RH  039%=      5-min Rain = 0
KAM3 140520Z 14012KT 05/M07 A3028 RMK A01 T00541074  RH  039%=      5-min Rain = 0
KAM3 140521Z 14012KT 05/M07 A3028 RMK A01 T00541074  RH  039%=      5-min Rain = 0
KAM3 140522Z 14011KT 06/M07 A3028 RMK A01 T00551074  RH  039%=      5-min Rain = 0
KAM3 140523Z 15012KT 06/M07 A3028 RMK A01 T00551074  RH  039%=      5-min Rain = 0
KAM3 140524Z 15012KT 06/M07 A3028 RMK A01 T00561074  RH  039%=      5-min Rain = 0
KAM3 140525Z 14011KT 06/M07 A3028 RMK A01 T00561074  RH  039%=      5-min Rain = 0
KAM3 140526Z 15012KT 06/M07 A3028 RMK A01 T00561074  RH  038%=      5-min Rain = 0
KAM3 140527Z 15012KT 06/M07 A3028 RMK A01 T00561074  RH  039%=      5-min Rain = 0
KAM3 140528Z 15012KT 06/M07 A3028 RMK A01 T00561074  RH  039%=      5-min Rain = 0
KAM3 140529Z 15012KT 06/M07 A3028 RMK A01 T00561074  RH  039%=      5-min Rain = 0
KAM3 140530Z 15011KT 06/M07 A3028 RMK A01 T00561074  RH  038%=      5-min Rain = 0
KAM3 140531Z 15012KT 06/M07 A3028 RMK A01 T00561074  RH  038%=      5-min Rain = 0
KAM3 140532Z 15013KT 06/M07 A3028 RMK A01 T00561074  RH  038%=      5-min Rain = 0
KAM3 140533Z 15012KT 06/M07 A3028 RMK A01 T00561074  RH  038%=      5-min Rain = 0
KAM3 140534Z 15013KT 06/M07 A3028 RMK A01 T00571074  RH  038%=      5-min Rain = 0
KAM3 140535Z 15012KT 06/M07 A3028 RMK A01 T00571074  RH  038%=      5-min Rain = 0
KAM3 140536Z 15013KT 06/M07 A3028 RMK A01 T00571074  RH  038%=      5-min Rain = 0
KAM3 140537Z 15014KT 06/M07 A3028 RMK A01 T00571074  RH  038%=      5-min Rain = 0
KAM3 140538Z 15013KT 06/M07 A3028 RMK A01 T00581074  RH  038%=      5-min Rain = 0
KAM3 140539Z 15013KT 06/M07 A3028 RMK A01 T00581074  RH  038%=      5-min Rain = 0
KAM3 140540Z 15012KT 06/M07 A3028 RMK A01 T00581074  RH  038%=      5-min Rain = 0
KAM3 140541Z 15013KT 06/M07 A3028 RMK A01 T00581073  RH  038%=      5-min Rain = 0
KAM3 140542Z 15012KT 06/M07 A3028 RMK A01 T00581073  RH  038%=      5-min Rain = 0
KAM3 140543Z 15013KT 06/M07 A3028 RMK A01 T00581073  RH  038%=      5-min Rain = 0
KAM3 140544Z 15013KT 06/M07 A3028 RMK A01 T00581073  RH  038%=      5-min Rain = 0
KAM3 140545Z 15012KT 06/M07 A3028 RMK A01 T00581073  RH  038%=      5-min Rain = 0
KAM3 140546Z 15014KT 06/M07 A3028 RMK A01 T00581073  RH  038%=      5-min Rain = 0
KAM3 140547Z 15013KT 06/M07 A3028 RMK A01 T00581073  RH  038%=      5-min Rain = 0
KAM3 140548Z 15011KT 06/M07 A3028 RMK A01 T00581073  RH  038%=      5-min Rain = 0
KAM3 140549Z 15014KT 06/M07 A3028 RMK A01 T00581073  RH  038%=      5-min Rain = 0
KAM3 140550Z 15012G17KT 06/M07 A3027 RMK A01 T00581072  RH  038%=      5-min Rain = 0
KAM3 140551Z 15015KT 06/M07 A3027 RMK A01 T00581073  RH  038%=      5-min Rain = 0
KAM3 140552Z 15015G20KT 06/M07 A3027 RMK A01 T00591072  RH  038%=      5-min Rain = 0
KAM3 140553Z 15015KT 06/M07 A3027 RMK A01 T00601071  RH  038%=      5-min Rain = 0
KAM3 140554Z 15014KT 06/M07 A3027 RMK A01 T00611071  RH  038%=      5-min Rain = 0
KAM3 140555Z 15014KT 06/M07 A3027 RMK A01 T00611071  RH  038%=      5-min Rain = 0
KAM3 140556Z 15014G20KT 06/M07 A3027 RMK A01 T00621070  RH  038%=      5-min Rain = 0
KAM3 140557Z 15015G20KT 06/M07 A3027 RMK A01 T00611071  RH  038%=      5-min Rain = 0
KAM3 140558Z 15014KT 06/M07 A3027 RMK A01 T00611071  RH  038%=      5-min Rain = 0
KAM3 140559Z 15013KT 06/M07 A3027 RMK A01 T00611071  RH  038%=      5-min Rain = 0
KAM3 140600Z 15014KT 06/M07 A3027 RMK A01 T00601071  RH  038%=      5-min Rain = 0
KAM3 140601Z 15015KT 06/M07 A3027 RMK A01 T00601071  RH  039%=      5-min Rain = 0
KAM3 140602Z 15014KT 06/M07 A3027 RMK A01 T00601070  RH  039%=      5-min Rain = 0
KAM3 140603Z 15014KT 06/M07 A3027 RMK A01 T00601070  RH  039%=      5-min Rain = 0
KAM3 140604Z 15014KT 06/M07 A3027 RMK A01 T00601070  RH  039%=      5-min Rain = 0
KAM3 140605Z 15013KT 06/M07 A3027 RMK A01 T00601070  RH  039%=      5-min Rain = 0
KAM3 140606Z 15013KT 06/M07 A3027 RMK A01 T00601070  RH  039%=      5-min Rain = 0
KAM3 140607Z 15012KT 06/M07 A3027 RMK A01 T00601070  RH  039%=      5-min Rain = 0
KAM3 140608Z 15013KT 06/M07 A3027 RMK A01 T00591070  RH  039%=      5-min Rain = 0
KAM3 140609Z 15013KT 06/M07 A3027 RMK A01 T00591070  RH  039%=      5-min Rain = 0
KAM3 140610Z 16013KT 06/M07 A3027 RMK A01 T00591069  RH  039%=      5-min Rain = 0
KAM3 140611Z 15014KT 06/M07 A3027 RMK A01 T00591070  RH  039%=      5-min Rain = 0
KAM3 140612Z 16013KT 06/M07 A3027 RMK A01 T00591069  RH  039%=      5-min Rain = 0
KAM3 140613Z 16013KT 06/M07 A3027 RMK A01 T00591070  RH  039%=      5-min Rain = 0
KAM3 140614Z 16012KT 06/M07 A3027 RMK A01 T00591070  RH  039%=      5-min Rain = 0
KAM3 140615Z 16012KT 06/M07 A3027 RMK A01 T00591070  RH  039%=      5-min Rain = 0
KAM3 140616Z 16011KT 06/M07 A3027 RMK A01 T00591070  RH  039%=      5-min Rain = 0
KAM3 140617Z 15011KT 06/M07 A3027 RMK A01 T00581070  RH  039%=      5-min Rain = 0
KAM3 140618Z 15011KT 06/M07 A3027 RMK A01 T00581070  RH  039%=      5-min Rain = 0
KAM3 140619Z 15011KT 06/M07 A3027 RMK A01 T00571070  RH  040%=      5-min Rain = 0
KAM3 140620Z 16011KT 06/M07 A3027 RMK A01 T00571069  RH  040%=      5-min Rain = 0
KAM3 140621Z 15011KT 06/M07 A3027 RMK A01 T00571069  RH  040%=      5-min Rain = 0
KAM3 140622Z 15011KT 06/M07 A3027 RMK A01 T00561070  RH  040%=      5-min Rain = 0
KAM3 140623Z 16012KT 06/M07 A3027 RMK A01 T00561070  RH  040%=      5-min Rain = 0
KAM3 140624Z 16011KT 06/M07 A3027 RMK A01 T00561070  RH  040%=      5-min Rain = 0
KAM3 140625Z 16010KT 06/M07 A3027 RMK A01 T00561070  RH  040%=      5-min Rain = 0
KAM3 140626Z 15011KT 06/M07 A3027 RMK A01 T00561070  RH  040%=      5-min Rain = 0
KAM3 140627Z 16010KT 06/M07 A3027 RMK A01 T00551070  RH  040%=      5-min Rain = 0
KAM3 140628Z 15010KT 06/M07 A3027 RMK A01 T00551070  RH  040%=      5-min Rain = 0
KAM3 140629Z 15010KT 06/M07 A3027 RMK A01 T00551070  RH  040%=      5-min Rain = 0
KAM3 140630Z 15010KT 06/M07 A3027 RMK A01 T00551070  RH  040%=      5-min Rain = 0
KAM3 140631Z 15010KT 06/M07 A3027 RMK A01 T00551070  RH  040%=      5-min Rain = 0
KAM3 140632Z 15009KT 05/M07 A3027 RMK A01 T00541071  RH  040%=      5-min Rain = 0
KAM3 140633Z 15009KT 05/M07 A3027 RMK A01 T00541071  RH  040%=      5-min Rain = 0
KAM3 140634Z 15010KT 05/M07 A3027 RMK A01 T00531072  RH  040%=      5-min Rain = 0
KAM3 140635Z 15010KT 05/M07 A3027 RMK A01 T00531071  RH  040%=      5-min Rain = 0
KAM3 140636Z 15010KT 05/M07 A3027 RMK A01 T00531072  RH  040%=      5-min Rain = 0
KAM3 140637Z 15010KT 05/M07 A3027 RMK A01 T00531072  RH  040%=      5-min Rain = 0
KAM3 140638Z 15009KT 05/M07 A3027 RMK A01 T00531071  RH  040%=      5-min Rain = 0
KAM3 140639Z 15009KT 05/M07 A3027 RMK A01 T00531072  RH  040%=      5-min Rain = 0
KAM3 140640Z 15010KT 05/M07 A3027 RMK A01 T00531071  RH  040%=      5-min Rain = 0
KAM3 140641Z 15011KT 05/M07 A3027 RMK A01 T00531072  RH  040%=      5-min Rain = 0
KAM3 140642Z 15010KT 05/M07 A3027 RMK A01 T00541071  RH  040%=      5-min Rain = 0
KAM3 140643Z 16009KT 05/M07 A3027 RMK A01 T00541071  RH  040%=      5-min Rain = 0
KAM3 140644Z 15009KT 05/M07 A3027 RMK A01 T00531071  RH  040%=      5-min Rain = 0
KAM3 140645Z 16010KT 05/M07 A3027 RMK A01 T00541071  RH  040%=      5-min Rain = 0
KAM3 140646Z 16009KT 05/M07 A3027 RMK A01 T00531071  RH  040%=      5-min Rain = 0
KAM3 140647Z 15008KT 05/M07 A3027 RMK A01 T00531071  RH  040%=      5-min Rain = 0
KAM3 140648Z 15010KT 05/M07 A3027 RMK A01 T00531071  RH  040%=      5-min Rain = 0
KAM3 140649Z 15011KT 05/M07 A3027 RMK A01 T00531071  RH  040%=      5-min Rain = 0
KAM3 140650Z 15011KT 05/M07 A3027 RMK A01 T00541070  RH  040%=      5-min Rain = 0
KAM3 140651Z 16009KT 06/M07 A3027 RMK A01 T00551070  RH  040%=      5-min Rain = 0
KAM3 140652Z 15010KT 06/M07 A3027 RMK A01 T00551070  RH  040%=      5-min Rain = 0
KAM3 140653Z 15011KT 06/M07 A3026 RMK A01 T00551070  RH  040%=      5-min Rain = 0
KAM3 140654Z 15010KT 06/M07 A3026 RMK A01 T00561070  RH  040%=      5-min Rain = 0
KAM3 140655Z 15010KT 06/M07 A3026 RMK A01 T00561070  RH  040%=      5-min Rain = 0
KAM3 140656Z 15010KT 06/M07 A3026 RMK A01 T00561070  RH  040%=      5-min Rain = 0
KAM3 140657Z 15011KT 06/M07 A3026 RMK A01 T00561070  RH  040%=      5-min Rain = 0
KAM3 140658Z 15011KT 06/M07 A3026 RMK A01 T00561070  RH  040%=      5-min Rain = 0
KAM3 140659Z 15011G16KT 06/M07 A3026 RMK A01 T00571070  RH  040%=      5-min Rain = 0
KAM3 140700Z 15012KT 06/M07 A3026 RMK A01 T00581069  RH  040%=      5-min Rain = 0
KAM3 140701Z 15012KT 06/M07 A3026 RMK A01 T00581069  RH  039%=      5-min Rain = 0
KAM3 140702Z 16011KT 06/M07 A3026 RMK A01 T00591069  RH  039%=      5-min Rain = 0
KAM3 140703Z 16013KT 06/M07 A3026 RMK A01 T00601069  RH  039%=      5-min Rain = 0
KAM3 140704Z 16012KT 06/M07 A3026 RMK A01 T00601069  RH  039%=      5-min Rain = 0
KAM3 140705Z 16010KT 06/M07 A3026 RMK A01 T00611069  RH  039%=      5-min Rain = 0
KAM3 140706Z 16012KT 06/M07 A3026 RMK A01 T00611069  RH  039%=      5-min Rain = 0
KAM3 140707Z 16015KT 06/M07 A3026 RMK A01 T00611069  RH  039%=      5-min Rain = 0
KAM3 140708Z 16012KT 06/M07 A3026 RMK A01 T00621068  RH  039%=      5-min Rain = 0
KAM3 140709Z 16012KT 06/M07 A3026 RMK A01 T00621069  RH  039%=      5-min Rain = 0
KAM3 140710Z 16010KT 06/M07 A3026 RMK A01 T00621069  RH  039%=      5-min Rain = 0
KAM3 140711Z 16011KT 06/M07 A3026 RMK A01 T00611069  RH  039%=      5-min Rain = 0
KAM3 140712Z 15012KT 06/M07 A3026 RMK A01 T00611069  RH  039%=      5-min Rain = 0
KAM3 140713Z 16012KT 06/M07 A3026 RMK A01 T00611069  RH  039%=      5-min Rain = 0
KAM3 140714Z 16012KT 06/M07 A3026 RMK A01 T00621069  RH  039%=      5-min Rain = 0
KAM3 140715Z 16010KT 06/M07 A3026 RMK A01 T00611069  RH  039%=      5-min Rain = 0
KAM3 140716Z 16013KT 06/M07 A3026 RMK A01 T00611069  RH  039%=      5-min Rain = 0
KAM3 140717Z 16010KT 06/M07 A3026 RMK A01 T00611069  RH  039%=      5-min Rain = 0
KAM3 140718Z 15012KT 06/M07 A3026 RMK A01 T00601069  RH  039%=      5-min Rain = 0
KAM3 140719Z 16011KT 06/M07 A3026 RMK A01 T00601069  RH  039%=      5-min Rain = 0
KAM3 140720Z 16009KT 06/M07 A3027 RMK A01 T00601069  RH  039%=      5-min Rain = 0
KAM3 140721Z 15009KT 06/M07 A3027 RMK A01 T00591070  RH  039%=      5-min Rain = 0
KAM3 140722Z 15010KT 06/M07 A3027 RMK A01 T00581070  RH  039%=      5-min Rain = 0
KAM3 140723Z 15010KT 06/M07 A3027 RMK A01 T00571070  RH  040%=      5-min Rain = 0
KAM3 140724Z 15010KT 06/M07 A3027 RMK A01 T00581070  RH  039%=      5-min Rain = 0
KAM3 140725Z 15010KT 06/M07 A3027 RMK A01 T00581070  RH  039%=      5-min Rain = 0
KAM3 140726Z 15010KT 06/M07 A3027 RMK A01 T00581070  RH  039%=      5-min Rain = 0
KAM3 140727Z 15008KT 06/M07 A3027 RMK A01 T00581069  RH  040%=      5-min Rain = 0
KAM3 140728Z 15009KT 06/M07 A3027 RMK A01 T00581069  RH  040%=      5-min Rain = 0
KAM3 140729Z 15008KT 06/M07 A3027 RMK A01 T00571069  RH  040%=      5-min Rain = 0
KAM3 140730Z 15009KT 06/M07 A3027 RMK A01 T00561069  RH  040%=      5-min Rain = 0
KAM3 140731Z 16007KT 06/M07 A3027 RMK A01 T00561069  RH  040%=      5-min Rain = 0
KAM3 140732Z 15009KT 06/M07 A3027 RMK A01 T00561069  RH  040%=      5-min Rain = 0
KAM3 140733Z 15010KT 06/M07 A3027 RMK A01 T00561069  RH  040%=      5-min Rain = 0
KAM3 140734Z 15011KT 06/M07 A3027 RMK A01 T00561069  RH  040%=      5-min Rain = 0
KAM3 140735Z 15012KT 06/M07 A3027 RMK A01 T00561069  RH  040%=      5-min Rain = 0
KAM3 140736Z 14009KT 06/M07 A3027 RMK A01 T00571068  RH  040%=      5-min Rain = 0
KAM3 140737Z 15010KT 06/M07 A3027 RMK A01 T00571068  RH  040%=      5-min Rain = 0
KAM3 140738Z 15009KT 06/M07 A3027 RMK A01 T00561069  RH  040%=      5-min Rain = 0
KAM3 140739Z 15009KT 06/M07 A3027 RMK A01 T00561069  RH  040%=      5-min Rain = 0
KAM3 140740Z 15011KT 06/M07 A3026 RMK A01 T00561069  RH  040%=      5-min Rain = 0
KAM3 140741Z 15010KT 06/M07 A3026 RMK A01 T00561069  RH  040%=      5-min Rain = 0
KAM3 140742Z 15013KT 06/M07 A3026 RMK A01 T00561069  RH  040%=      5-min Rain = 0
KAM3 140743Z 15012KT 06/M07 A3026 RMK A01 T00571069  RH  040%=      5-min Rain = 0
KAM3 140744Z 15012KT 06/M07 A3026 RMK A01 T00571069  RH  040%=      5-min Rain = 0
KAM3 140745Z 16012KT 06/M07 A3026 RMK A01 T00581069  RH  040%=      5-min Rain = 0
KAM3 140746Z 15010KT 06/M07 A3026 RMK A01 T00581068  RH  040%=      5-min Rain = 0
KAM3 140747Z 15014KT 06/M07 A3026 RMK A01 T00581068  RH  040%=      5-min Rain = 0
KAM3 140748Z 15010KT 06/M07 A3026 RMK A01 T00581069  RH  040%=      5-min Rain = 0
KAM3 140749Z 15011KT 06/M07 A3026 RMK A01 T00581069  RH  040%=      5-min Rain = 0
KAM3 140750Z 15011KT 06/M07 A3026 RMK A01 T00571069  RH  040%=      5-min Rain = 0
KAM3 140751Z 15011KT 06/M07 A3026 RMK A01 T00571069  RH  040%=      5-min Rain = 0
KAM3 140752Z 15012KT 06/M07 A3026 RMK A01 T00571069  RH  040%=      5-min Rain = 0
KAM3 140753Z 15011KT 06/M07 A3026 RMK A01 T00571069  RH  040%=      5-min Rain = 0
KAM3 140754Z 15012KT 06/M07 A3026 RMK A01 T00571069  RH  040%=      5-min Rain = 0
KAM3 140755Z 15010KT 06/M07 A3026 RMK A01 T00571069  RH  040%=      5-min Rain = 0
KAM3 140756Z 15010KT 06/M07 A3026 RMK A01 T00571069  RH  040%=      5-min Rain = 0
KAM3 140757Z 15010KT 06/M07 A3026 RMK A01 T00571069  RH  040%=      5-min Rain = 0
KAM3 140758Z 15011KT 06/M07 A3026 RMK A01 T00561069  RH  040%=      5-min Rain = 0
KAM3 140759Z 15011KT 06/M07 A3026 RMK A01 T00561069  RH  040%=      5-min Rain = 0
KAM3 140800Z 15012KT 06/M07 A3026 RMK A01 T00561068  RH  040%=      5-min Rain = 0
KAM3 140801Z 15012KT 06/M07 A3026 RMK A01 T00571068  RH  040%=      5-min Rain = 0
KAM3 140802Z 16013KT 06/M07 A3026 RMK A01 T00571068  RH  040%=      5-min Rain = 0
KAM3 140803Z 16013KT 06/M07 A3026 RMK A01 T00571068  RH  040%=      5-min Rain = 0
KAM3 140804Z 16011KT 06/M07 A3025 RMK A01 T00571068  RH  040%=      5-min Rain = 0
KAM3 140805Z 15012KT 06/M07 A3025 RMK A01 T00571068  RH  040%=      5-min Rain = 0
KAM3 140806Z 15011KT 06/M07 A3025 RMK A01 T00571068  RH  040%=      5-min Rain = 0
KAM3 140807Z 16010KT 06/M07 A3025 RMK A01 T00571069  RH  040%=      5-min Rain = 0
KAM3 140808Z 16011KT 06/M07 A3025 RMK A01 T00581068  RH  040%=      5-min Rain = 0
KAM3 140809Z 16014KT 06/M07 A3025 RMK A01 T00571068  RH  040%=      5-min Rain = 0
KAM3 140810Z 16014KT 06/M07 A3025 RMK A01 T00571068  RH  040%=      5-min Rain = 0
KAM3 140811Z 16013KT 06/M07 A3025 RMK A01 T00581068  RH  040%=      5-min Rain = 0
KAM3 140812Z 15013KT 06/M07 A3025 RMK A01 T00591068  RH  040%=      5-min Rain = 0
KAM3 140813Z 15011KT 06/M07 A3025 RMK A01 T00601068  RH  039%=      5-min Rain = 0
KAM3 140814Z 16011KT 06/M07 A3025 RMK A01 T00601068  RH  039%=      5-min Rain = 0
KAM3 140815Z 16010KT 06/M07 A3025 RMK A01 T00601068  RH  039%=      5-min Rain = 0
KAM3 140816Z 16011KT 06/M07 A3025 RMK A01 T00601068  RH  039%=      5-min Rain = 0
KAM3 140817Z 17013KT 06/M07 A3026 RMK A01 T00601068  RH  039%=      5-min Rain = 0
KAM3 140818Z 16014G19KT 06/M07 A3026 RMK A01 T00601068  RH  039%=      5-min Rain = 0
KAM3 140819Z 16012KT 06/M07 A3026 RMK A01 T00611068  RH  039%=      5-min Rain = 0
KAM3 140820Z 16010KT 06/M07 A3026 RMK A01 T00621068  RH  039%=      5-min Rain = 0
KAM3 140821Z 16010G15KT 06/M07 A3026 RMK A01 T00631068  RH  039%=      5-min Rain = 0
KAM3 140822Z 16010KT 06/M07 A3026 RMK A01 T00631068  RH  039%=      5-min Rain = 0
KAM3 140823Z 16010KT 06/M07 A3026 RMK A01 T00631068  RH  039%=      5-min Rain = 0
KAM3 140824Z 17011KT 06/M07 A3026 RMK A01 T00621068  RH  039%=      5-min Rain = 0
KAM3 140825Z 16011KT 06/M07 A3026 RMK A01 T00621068  RH  039%=      5-min Rain = 0
KAM3 140826Z 15011KT 06/M07 A3026 RMK A01 T00621068  RH  039%=      5-min Rain = 0
KAM3 140827Z 16012KT 06/M07 A3026 RMK A01 T00631069  RH  038%=      5-min Rain = 0
KAM3 140828Z 17010KT 06/M07 A3026 RMK A01 T00641069  RH  038%=      5-min Rain = 0
KAM3 140829Z 16008KT 06/M07 A3026 RMK A01 T00641069  RH  038%=      5-min Rain = 0
KAM3 140830Z 16009KT 06/M07 A3026 RMK A01 T00631069  RH  038%=      5-min Rain = 0
KAM3 140831Z 17009KT 06/M07 A3026 RMK A01 T00631069  RH  038%=      5-min Rain = 0
KAM3 140832Z 16007KT 06/M07 A3026 RMK A01 T00641070  RH  038%=      5-min Rain = 0
KAM3 140833Z 16006KT 06/M07 A3026 RMK A01 T00641070  RH  038%=      5-min Rain = 0
KAM3 140834Z 17008KT 06/M07 A3026 RMK A01 T00641070  RH  038%=      5-min Rain = 0
KAM3 140835Z 17008KT 06/M07 A3026 RMK A01 T00631070  RH  038%=      5-min Rain = 0
KAM3 140836Z 17009KT 06/M07 A3026 RMK A01 T00631070  RH  038%=      5-min Rain = 0
KAM3 140837Z 18011KT 06/M07 A3026 RMK A01 T00631070  RH  038%=      5-min Rain = 0
KAM3 140838Z 16011KT 06/M07 A3026 RMK A01 T00631070  RH  038%=      5-min Rain = 0
KAM3 140839Z 16012KT 06/M07 A3026 RMK A01 T00631070  RH  038%=      5-min Rain = 0
KAM3 140840Z 17010KT 06/M07 A3026 RMK A01 T00631070  RH  038%=      5-min Rain = 0
KAM3 140841Z 17009KT 06/M07 A3026 RMK A01 T00631070  RH  038%=      5-min Rain = 0
KAM3 140842Z 16009KT 06/M07 A3026 RMK A01 T00621070  RH  038%=      5-min Rain = 0
KAM3 140843Z 16009KT 06/M07 A3026 RMK A01 T00621070  RH  038%=      5-min Rain = 0
KAM3 140844Z 16013G18KT 06/M07 A3026 RMK A01 T00621070  RH  038%=      5-min Rain = 0
KAM3 140845Z 17013KT 06/M07 A3026 RMK A01 T00621070  RH  038%=      5-min Rain = 0
KAM3 140846Z 17011G16KT 06/M07 A3026 RMK A01 T00621070  RH  038%=      5-min Rain = 0
KAM3 140847Z 17013KT 06/M07 A3026 RMK A01 T00621070  RH  038%=      5-min Rain = 0
KAM3 140848Z 16012KT 06/M07 A3026 RMK A01 T00621070  RH  038%=      5-min Rain = 0
KAM3 140849Z 16010KT 06/M07 A3026 RMK A01 T00621070  RH  038%=      5-min Rain = 0
KAM3 140850Z 16010KT 06/M07 A3025 RMK A01 T00621071  RH  038%=      5-min Rain = 0
KAM3 140851Z 16011KT 06/M07 A3025 RMK A01 T00621071  RH  038%=      5-min Rain = 0
KAM3 140852Z 17010KT 06/M07 A3025 RMK A01 T00621071  RH  038%=      5-min Rain = 0
KAM3 140853Z 17012KT 06/M07 A3025 RMK A01 T00611071  RH  038%=      5-min Rain = 0
KAM3 140854Z 17011KT 06/M07 A3025 RMK A01 T00611071  RH  038%=      5-min Rain = 0
KAM3 140855Z 17013KT 06/M07 A3025 RMK A01 T00601071  RH  038%=      5-min Rain = 0
KAM3 140856Z 16012KT 06/M07 A3025 RMK A01 T00611071  RH  038%=      5-min Rain = 0
KAM3 140857Z 16010KT 06/M07 A3025 RMK A01 T00611071  RH  038%=      5-min Rain = 0
KAM3 140858Z 17011KT 06/M07 A3025 RMK A01 T00611071  RH  038%=      5-min Rain = 0
KAM3 140859Z 16012KT 06/M07 A3025 RMK A01 T00601071  RH  038%=      5-min Rain = 0
KAM3 140900Z 17013KT 06/M07 A3025 RMK A01 T00591071  RH  039%=      5-min Rain = 0
KAM3 140901Z 17014KT 06/M07 A3025 RMK A01 T00591071  RH  039%=      5-min Rain = 0
KAM3 140902Z 17012KT 06/M07 A3025 RMK A01 T00581071  RH  039%=      5-min Rain = 0
KAM3 140903Z 17010KT 06/M07 A3025 RMK A01 T00591071  RH  039%=      5-min Rain = 0
KAM3 140904Z 17012KT 06/M07 A3025 RMK A01 T00581072  RH  039%=      5-min Rain = 0
KAM3 140905Z 16011KT 06/M07 A3025 RMK A01 T00571072  RH  039%=      5-min Rain = 0
KAM3 140906Z 17010KT 06/M07 A3025 RMK A01 T00571072  RH  039%=      5-min Rain = 0
KAM3 140907Z 17010KT 06/M07 A3025 RMK A01 T00561071  RH  040%=      5-min Rain = 0
KAM3 140908Z 17011KT 06/M07 A3025 RMK A01 T00551071  RH  040%=      5-min Rain = 0
KAM3 140909Z 17012KT 05/M07 A3025 RMK A01 T00541071  RH  040%=      5-min Rain = 0
KAM3 140910Z 17011KT 05/M07 A3025 RMK A01 T00541070  RH  040%=      5-min Rain = 0
KAM3 140911Z 17012KT 05/M07 A3025 RMK A01 T00541070  RH  040%=      5-min Rain = 0
KAM3 140912Z 17012G17KT 05/M07 A3025 RMK A01 T00541070  RH  040%=      5-min Rain = 0
KAM3 140913Z 17012KT 05/M07 A3025 RMK A01 T00541070  RH  040%=      5-min Rain = 0
KAM3 140914Z 17010KT 05/M07 A3025 RMK A01 T00541070  RH  040%=      5-min Rain = 0
KAM3 140915Z 16010KT 05/M07 A3025 RMK A01 T00531071  RH  040%=      5-min Rain = 0
KAM3 140916Z 17012KT 05/M07 A3024 RMK A01 T00521071  RH  040%=      5-min Rain = 0
KAM3 140917Z 17013G19KT 05/M07 A3024 RMK A01 T00521072  RH  040%=      5-min Rain = 0
KAM3 140918Z 17016KT 05/M07 A3024 RMK A01 T00521071  RH  040%=      5-min Rain = 0
KAM3 140919Z 16014KT 05/M07 A3024 RMK A01 T00531071  RH  040%=      5-min Rain = 0
KAM3 140920Z 16011KT 05/M07 A3024 RMK A01 T00541071  RH  040%=      5-min Rain = 0
KAM3 140921Z 17009KT 05/M07 A3024 RMK A01 T00541071  RH  040%=      5-min Rain = 0
KAM3 140922Z 17009KT 05/M07 A3024 RMK A01 T00531072  RH  040%=      5-min Rain = 0
KAM3 140923Z 17012KT 05/M07 A3024 RMK A01 T00501073  RH  041%=      5-min Rain = 0
KAM3 140924Z 17013KT 05/M07 A3024 RMK A01 T00501072  RH  041%=      5-min Rain = 0
KAM3 140925Z 17012KT 05/M07 A3024 RMK A01 T00501072  RH  041%=      5-min Rain = 0
KAM3 140926Z 17011KT 05/M07 A3024 RMK A01 T00491072  RH  041%=      5-min Rain = 0
KAM3 140927Z 18011KT 05/M07 A3024 RMK A01 T00491072  RH  041%=      5-min Rain = 0
KAM3 140928Z 17013KT 05/M07 A3024 RMK A01 T00481073  RH  041%=      5-min Rain = 0
KAM3 140929Z 17011KT 05/M07 A3024 RMK A01 T00481072  RH  041%=      5-min Rain = 0
KAM3 140930Z 17012KT 05/M07 A3024 RMK A01 T00471072  RH  042%=      5-min Rain = 0
KAM3 140931Z 17011KT 05/M07 A3023 RMK A01 T00471072  RH  042%=      5-min Rain = 0
KAM3 140932Z 17012G17KT 05/M07 A3023 RMK A01 T00471072  RH  042%=      5-min Rain = 0
KAM3 140933Z 17012KT 05/M07 A3023 RMK A01 T00471072  RH  042%=      5-min Rain = 0
KAM3 140934Z 17012KT 05/M07 A3023 RMK A01 T00471072  RH  042%=      5-min Rain = 0
KAM3 140935Z 17011KT 05/M07 A3023 RMK A01 T00461072  RH  042%=      5-min Rain = 0
KAM3 140936Z 17013KT 05/M07 A3023 RMK A01 T00451073  RH  042%=      5-min Rain = 0
KAM3 140937Z 17011KT 05/M07 A3023 RMK A01 T00451073  RH  042%=      5-min Rain = 0
KAM3 140938Z 17011KT 05/M07 A3023 RMK A01 T00451073  RH  042%=      5-min Rain = 0
KAM3 140939Z 17012KT 04/M07 A3023 RMK A01 T00441073  RH  042%=      5-min Rain = 0
KAM3 140940Z 17011KT 04/M07 A3023 RMK A01 T00441073  RH  042%=      5-min Rain = 0
KAM3 140941Z 17012KT 04/M07 A3023 RMK A01 T00431073  RH  042%=      5-min Rain = 0
KAM3 140942Z 17011KT 04/M07 A3023 RMK A01 T00431073  RH  042%=      5-min Rain = 0
KAM3 140943Z 17011KT 04/M07 A3023 RMK A01 T00431073  RH  043%=      5-min Rain = 0
KAM3 140944Z 17011KT 04/M07 A3023 RMK A01 T00421073  RH  043%=      5-min Rain = 0
KAM3 140945Z 17012KT 04/M07 A3023 RMK A01 T00421073  RH  043%=      5-min Rain = 0
KAM3 140946Z 17012KT 04/M07 A3023 RMK A01 T00421073  RH  043%=      5-min Rain = 0
KAM3 140947Z 17012KT 04/M07 A3023 RMK A01 T00421073  RH  043%=      5-min Rain = 0
KAM3 140948Z 17011KT 04/M07 A3023 RMK A01 T00421073  RH  043%=      5-min Rain = 0
KAM3 140949Z 17012KT 04/M07 A3023 RMK A01 T00421073  RH  043%=      5-min Rain = 0
KAM3 140950Z 17012KT 04/M07 A3023 RMK A01 T00421073  RH  043%=      5-min Rain = 0
KAM3 140951Z 17012KT 04/M07 A3023 RMK A01 T00421073  RH  043%=      5-min Rain = 0
KAM3 140952Z 16012KT 04/M07 A3023 RMK A01 T00421073  RH  043%=      5-min Rain = 0
KAM3 140953Z 17012KT 04/M07 A3023 RMK A01 T00421073  RH  043%=      5-min Rain = 0
KAM3 140954Z 17013KT 04/M07 A3022 RMK A01 T00421073  RH  043%=      5-min Rain = 0
KAM3 140955Z 17011KT 04/M07 A3023 RMK A01 T00431073  RH  043%=      5-min Rain = 0
KAM3 140956Z 17012KT 04/M07 A3022 RMK A01 T00431073  RH  043%=      5-min Rain = 0
KAM3 140957Z 18012KT 04/M07 A3022 RMK A01 T00431073  RH  043%=      5-min Rain = 0
KAM3 140958Z 17012KT 04/M07 A3022 RMK A01 T00431073  RH  043%=      5-min Rain = 0
KAM3 140959Z 17012KT 04/M07 A3022 RMK A01 T00431073  RH  043%=      5-min Rain = 0
KAM3 141000Z 17013KT 04/M07 A3022 RMK A01 T00431073  RH  043%=      5-min Rain = 0
KAM3 141001Z 17012KT 04/M07 A3022 RMK A01 T00431073  RH  043%=      5-min Rain = 0
KAM3 141002Z 17013KT 04/M07 A3022 RMK A01 T00431073  RH  043%=      5-min Rain = 0
KAM3 141003Z 17013KT 04/M07 A3022 RMK A01 T00431073  RH  043%=      5-min Rain = 0
KAM3 141004Z 17013KT 04/M07 A3022 RMK A01 T00431073  RH  043%=      5-min Rain = 0
KAM3 141005Z 17013KT 04/M07 A3022 RMK A01 T00441073  RH  043%=      5-min Rain = 0
KAM3 141006Z 17015KT 04/M07 A3022 RMK A01 T00441073  RH  042%=      5-min Rain = 0
KAM3 141007Z 17013KT 05/M07 A3022 RMK A01 T00451072  RH  042%=      5-min Rain = 0
KAM3 141008Z 17011KT 05/M07 A3022 RMK A01 T00461072  RH  042%=      5-min Rain = 0
KAM3 141009Z 17012KT 05/M07 A3022 RMK A01 T00461072  RH  042%=      5-min Rain = 0
KAM3 141010Z 17013KT 05/M07 A3022 RMK A01 T00461072  RH  042%=      5-min Rain = 0
KAM3 141011Z 17013KT 05/M07 A3022 RMK A01 T00461072  RH  042%=      5-min Rain = 0
KAM3 141012Z 17013KT 05/M07 A3022 RMK A01 T00461072  RH  042%=      5-min Rain = 0
KAM3 141013Z 17015KT 05/M07 A3022 RMK A01 T00451072  RH  042%=      5-min Rain = 0
KAM3 141014Z 17014G20KT 05/M07 A3022 RMK A01 T00461072  RH  042%=      5-min Rain = 0
KAM3 141015Z 17014KT 05/M07 A3022 RMK A01 T00471072  RH  042%=      5-min Rain = 0
KAM3 141016Z 17013KT 05/M07 A3022 RMK A01 T00471072  RH  042%=      5-min Rain = 0
KAM3 141017Z 17014KT 05/M07 A3022 RMK A01 T00471072  RH  042%=      5-min Rain = 0
KAM3 141018Z 17014KT 05/M07 A3022 RMK A01 T00471072  RH  042%=      5-min Rain = 0
KAM3 141019Z 16014KT 05/M07 A3022 RMK A01 T00481072  RH  042%=      5-min Rain = 0
KAM3 141020Z 17014KT 05/M07 A3022 RMK A01 T00481072  RH  042%=      5-min Rain = 0
KAM3 141021Z 17015KT 05/M07 A3022 RMK A01 T00481072  RH  042%=      5-min Rain = 0
KAM3 141022Z 17016KT 05/M07 A3022 RMK A01 T00481071  RH  042%=      5-min Rain = 0
KAM3 141023Z 16015KT 05/M07 A3022 RMK A01 T00491071  RH  042%=      5-min Rain = 0
KAM3 141024Z 17014KT 05/M07 A3022 RMK A01 T00501070  RH  041%=      5-min Rain = 0
KAM3 141025Z 17015G20KT 05/M07 A3022 RMK A01 T00491071  RH  041%=      5-min Rain = 0
KAM3 141026Z 17016KT 05/M07 A3022 RMK A01 T00501071  RH  041%=      5-min Rain = 0
KAM3 141027Z 17015KT 05/M07 A3022 RMK A01 T00501070  RH  041%=      5-min Rain = 0
KAM3 141028Z 17014KT 05/M07 A3022 RMK A01 T00511070  RH  041%=      5-min Rain = 0
KAM3 141029Z 17013KT 05/M07 A3022 RMK A01 T00511069  RH  042%=      5-min Rain = 0
KAM3 141030Z 17016KT 05/M07 A3022 RMK A01 T00511069  RH  042%=      5-min Rain = 0
KAM3 141031Z 17015KT 05/M07 A3022 RMK A01 T00511069  RH  041%=      5-min Rain = 0
KAM3 141032Z 17014KT 05/M07 A3022 RMK A01 T00521069  RH  041%=      5-min Rain = 0
KAM3 141033Z 17013KT 05/M07 A3022 RMK A01 T00521069  RH  041%=      5-min Rain = 0
KAM3 141034Z 17014KT 05/M07 A3022 RMK A01 T00521068  RH  041%=      5-min Rain = 0
KAM3 141035Z 18013KT 05/M07 A3022 RMK A01 T00521069  RH  041%=      5-min Rain = 0
KAM3 141036Z 18012KT 05/M07 A3022 RMK A01 T00521069  RH  041%=      5-min Rain = 0
KAM3 141037Z 17013G18KT 05/M07 A3022 RMK A01 T00521069  RH  041%=      5-min Rain = 0
KAM3 141038Z 17012KT 05/M07 A3022 RMK A01 T00521068  RH  042%=      5-min Rain = 0
KAM3 141039Z 18012KT 05/M07 A3022 RMK A01 T00521069  RH  041%=      5-min Rain = 0
KAM3 141040Z 18012KT 05/M07 A3022 RMK A01 T00521068  RH  042%=      5-min Rain = 0
KAM3 141041Z 18012KT 05/M07 A3023 RMK A01 T00521068  RH  041%=      5-min Rain = 0
KAM3 141042Z 19009KT 05/M07 A3023 RMK A01 T00521068  RH  042%=      5-min Rain = 0
KAM3 141043Z 18009KT 05/M07 A3023 RMK A01 T00521068  RH  042%=      5-min Rain = 0
KAM3 141044Z 18011KT 05/M07 A3023 RMK A01 T00521068  RH  042%=      5-min Rain = 0
KAM3 141045Z 18011KT 05/M07 A3023 RMK A01 T00521068  RH  042%=      5-min Rain = 0
KAM3 141046Z 18010KT 05/M07 A3023 RMK A01 T00521068  RH  042%=      5-min Rain = 0
KAM3 141047Z 18008KT 05/M07 A3023 RMK A01 T00521068  RH  042%=      5-min Rain = 0
KAM3 141048Z 19008KT 05/M07 A3023 RMK A01 T00521068  RH  042%=      5-min Rain = 0
KAM3 141049Z 18011KT 05/M07 A3023 RMK A01 T00511068  RH  042%=      5-min Rain = 0
KAM3 141050Z 19008KT 05/M07 A3023 RMK A01 T00511068  RH  042%=      5-min Rain = 0
KAM3 141051Z 19007KT 05/M07 A3023 RMK A01 T00511068  RH  042%=      5-min Rain = 0
KAM3 141052Z 19008KT 05/M07 A3023 RMK A01 T00511068  RH  042%=      5-min Rain = 0
KAM3 141053Z 19009KT 05/M07 A3023 RMK A01 T00501068  RH  042%=      5-min Rain = 0
KAM3 141054Z 19008KT 05/M07 A3023 RMK A01 T00511067  RH  042%=      5-min Rain = 0
KAM3 141055Z 19007KT 05/M07 A3023 RMK A01 T00501068  RH  042%=      5-min Rain = 0
KAM3 141056Z 19009KT 05/M07 A3023 RMK A01 T00491068  RH  042%=      5-min Rain = 0
KAM3 141057Z 19009KT 05/M07 A3022 RMK A01 T00491068  RH  043%=      5-min Rain = 0
KAM3 141058Z 19009KT 05/M07 A3022 RMK A01 T00491068  RH  042%=      5-min Rain = 0
KAM3 141059Z 19010KT 05/M07 A3022 RMK A01 T00491068  RH  042%=      5-min Rain = 0
KAM3 141100Z 19010KT 05/M07 A3022 RMK A01 T00501067  RH  042%=      5-min Rain = 0
KAM3 141101Z 19009KT 05/M07 A3022 RMK A01 T00501068  RH  042%=      5-min Rain = 0
KAM3 141102Z 19010KT 05/M07 A3022 RMK A01 T00501067  RH  042%=      5-min Rain = 0
KAM3 141103Z 19010KT 05/M07 A3022 RMK A01 T00501067  RH  043%=      5-min Rain = 0
KAM3 141104Z 19009KT 05/M07 A3022 RMK A01 T00501067  RH  042%=      5-min Rain = 0
KAM3 141105Z 18012KT 05/M07 A3022 RMK A01 T00501067  RH  042%=      5-min Rain = 0
KAM3 141106Z 19011KT 05/M07 A3022 RMK A01 T00501067  RH  042%=      5-min Rain = 0
KAM3 141107Z 19011KT 05/M07 A3022 RMK A01 T00501067  RH  042%=      5-min Rain = 0
KAM3 141108Z 19011KT 05/M07 A3022 RMK A01 T00501067  RH  042%=      5-min Rain = 0
KAM3 141109Z 19012KT 05/M07 A3022 RMK A01 T00501067  RH  043%=      5-min Rain = 0
KAM3 141110Z 18011KT 05/M07 A3022 RMK A01 T00501067  RH  043%=      5-min Rain = 0
KAM3 141111Z 18011KT 05/M07 A3021 RMK A01 T00501067  RH  043%=      5-min Rain = 0
KAM3 141112Z 18011KT 05/M07 A3021 RMK A01 T00501067  RH  043%=      5-min Rain = 0
KAM3 141113Z 18012KT 05/M07 A3021 RMK A01 T00501067  RH  043%=      5-min Rain = 0
KAM3 141114Z 18013KT 05/M07 A3021 RMK A01 T00501067  RH  043%=      5-min Rain = 0
KAM3 141115Z 18011KT 05/M07 A3021 RMK A01 T00501067  RH  043%=      5-min Rain = 0
KAM3 141116Z 18012KT 05/M07 A3021 RMK A01 T00501066  RH  043%=      5-min Rain = 0
KAM3 141117Z 18012KT 05/M07 A3021 RMK A01 T00501066  RH  043%=      5-min Rain = 0
KAM3 141118Z 17013KT 05/M07 A3021 RMK A01 T00501067  RH  043%=      5-min Rain = 0
KAM3 141119Z 18011KT 05/M07 A3021 RMK A01 T00511066  RH  043%=      5-min Rain = 0
KAM3 141120Z 18012KT 05/M07 A3021 RMK A01 T00511066  RH  043%=      5-min Rain = 0
KAM3 141121Z 18012KT 05/M07 A3021 RMK A01 T00501066  RH  043%=      5-min Rain = 0
KAM3 141122Z 18012KT 05/M07 A3021 RMK A01 T00501066  RH  043%=      5-min Rain = 0
KAM3 141123Z 18012KT 05/M07 A3021 RMK A01 T00511066  RH  043%=      5-min Rain = 0
KAM3 141124Z 18010KT 05/M07 A3021 RMK A01 T00511066  RH  043%=      5-min Rain = 0
KAM3 141125Z 18011KT 05/M07 A3021 RMK A01 T00511066  RH  043%=      5-min Rain = 0
KAM3 141126Z 18012KT 05/M07 A3021 RMK A01 T00511066  RH  043%=      5-min Rain = 0
KAM3 141127Z 19012KT 05/M07 A3021 RMK A01 T00511066  RH  043%=      5-min Rain = 0
KAM3 141128Z 18011KT 05/M07 A3021 RMK A01 T00511066  RH  043%=      5-min Rain = 0
KAM3 141129Z 19012KT 05/M07 A3021 RMK A01 T00511066  RH  042%=      5-min Rain = 0
KAM3 141130Z 18011KT 05/M07 A3021 RMK A01 T00511066  RH  042%=      5-min Rain = 0
KAM3 141131Z 19011KT 05/M07 A3021 RMK A01 T00521066  RH  042%=      5-min Rain = 0
KAM3 141132Z 18012KT 05/M07 A3021 RMK A01 T00521066  RH  042%=      5-min Rain = 0
KAM3 141133Z 18014KT 05/M07 A3021 RMK A01 T00531066  RH  042%=      5-min Rain = 0
KAM3 141134Z 18012KT 05/M07 A3021 RMK A01 T00531065  RH  042%=      5-min Rain = 0
KAM3 141135Z 18011KT 05/M07 A3021 RMK A01 T00531065  RH  042%=      5-min Rain = 0
KAM3 141136Z 18011KT 05/M07 A3021 RMK A01 T00531065  RH  042%=      5-min Rain = 0
KAM3 141137Z 19009KT 05/M07 A3021 RMK A01 T00531065  RH  042%=      5-min Rain = 0
KAM3 141138Z 19010KT 05/M07 A3021 RMK A01 T00531065  RH  042%=      5-min Rain = 0
KAM3 141139Z 19012KT 05/M07 A3021 RMK A01 T00531065  RH  042%=      5-min Rain = 0
KAM3 141140Z 19010KT 05/M07 A3021 RMK A01 T00531065  RH  042%=      5-min Rain = 0
KAM3 141141Z 19012KT 05/M07 A3021 RMK A01 T00531065  RH  042%=      5-min Rain = 0
KAM3 141142Z 19013KT 05/M07 A3021 RMK A01 T00521065  RH  043%=      5-min Rain = 0
KAM3 141143Z 19012KT 05/M07 A3021 RMK A01 T00521065  RH  043%=      5-min Rain = 0
KAM3 141144Z 19011KT 05/M07 A3021 RMK A01 T00521065  RH  043%=      5-min Rain = 0
KAM3 141145Z 19012KT 05/M07 A3021 RMK A01 T00521065  RH  043%=      5-min Rain = 0
KAM3 141146Z 19011KT 05/M07 A3021 RMK A01 T00521065  RH  043%=      5-min Rain = 0
KAM3 141147Z 19012KT 05/M07 A3021 RMK A01 T00511065  RH  043%=      5-min Rain = 0
KAM3 141148Z 18011KT 05/M07 A3021 RMK A01 T00511065  RH  043%=      5-min Rain = 0
KAM3 141149Z 19013KT 05/M07 A3021 RMK A01 T00511065  RH  043%=      5-min Rain = 0
KAM3 141150Z 19013KT 05/M07 A3021 RMK A01 T00501065  RH  043%=      5-min Rain = 0
KAM3 141151Z 19012KT 05/M07 A3021 RMK A01 T00501065  RH  043%=      5-min Rain = 0
KAM3 141152Z 19011KT 05/M07 A3021 RMK A01 T00501065  RH  043%=      5-min Rain = 0
KAM3 141153Z 19011KT 05/M07 A3021 RMK A01 T00501066  RH  043%=      5-min Rain = 0
KAM3 141154Z 19011KT 05/M07 A3021 RMK A01 T00491065  RH  043%=      5-min Rain = 0
KAM3 141155Z 19011KT 05/M07 A3021 RMK A01 T00491066  RH  043%=      5-min Rain = 0
KAM3 141156Z 18011KT 05/M07 A3021 RMK A01 T00491065  RH  043%=      5-min Rain = 0
KAM3 141157Z 19011KT 05/M07 A3021 RMK A01 T00481066  RH  043%=      5-min Rain = 0
KAM3 141158Z 19011KT 05/M07 A3021 RMK A01 T00481066  RH  043%=      5-min Rain = 0
KAM3 141159Z 19011KT 05/M07 A3021 RMK A01 T00481066  RH  043%=      5-min Rain = 0
KAM3 141200Z 19010KT 05/M07 A3021 RMK A01 T00481066  RH  044%=      5-min Rain = 0
KAM3 141201Z 19009KT 05/M07 A3021 RMK A01 T00481066  RH  044%=      5-min Rain = 0
KAM3 141202Z 18009KT 05/M07 A3021 RMK A01 T00471066  RH  044%=      5-min Rain = 0
KAM3 141203Z 19009KT 05/M07 A3021 RMK A01 T00471066  RH  044%=      5-min Rain = 0
KAM3 141204Z 19008KT 05/M07 A3021 RMK A01 T00461066  RH  044%=      5-min Rain = 0
KAM3 141205Z 19008KT 05/M07 A3021 RMK A01 T00461066  RH  044%=      5-min Rain = 0
KAM3 141206Z 19008KT 05/M07 A3021 RMK A01 T00451067  RH  044%=      5-min Rain = 0
KAM3 141207Z 19007KT 05/M07 A3021 RMK A01 T00461067  RH  044%=      5-min Rain = 0
KAM3 141208Z 19006KT 05/M07 A3021 RMK A01 T00451067  RH  044%=      5-min Rain = 0
KAM3 141209Z 19006KT 05/M07 A3021 RMK A01 T00451067  RH  044%=      5-min Rain = 0
KAM3 141210Z 19005KT 04/M07 A3021 RMK A01 T00441067  RH  044%=      5-min Rain = 0
KAM3 141211Z 19005KT 04/M07 A3022 RMK A01 T00441067  RH  044%=      5-min Rain = 0
KAM3 141212Z 20005KT 04/M07 A3022 RMK A01 T00431067  RH  044%=      5-min Rain = 0
KAM3 141213Z 19006KT 04/M07 A3022 RMK A01 T00431068  RH  044%=      5-min Rain = 0
KAM3 141214Z 20006KT 04/M07 A3022 RMK A01 T00431068  RH  044%=      5-min Rain = 0
KAM3 141215Z 20008KT 04/M07 A3022 RMK A01 T00431067  RH  045%=      5-min Rain = 0
KAM3 141216Z 20007KT 04/M07 A3021 RMK A01 T00431066  RH  045%=      5-min Rain = 0
KAM3 141217Z 20006KT 04/M07 A3021 RMK A01 T00441066  RH  045%=      5-min Rain = 0
KAM3 141218Z 20006KT 05/M07 A3021 RMK A01 T00451066  RH  044%=      5-min Rain = 0
KAM3 141219Z 19005KT 05/M07 A3021 RMK A01 T00451066  RH  044%=      5-min Rain = 0
KAM3 141220Z 19007KT 05/M07 A3021 RMK A01 T00451066  RH  044%=      5-min Rain = 0
KAM3 141221Z 19007KT 05/M07 A3021 RMK A01 T00451066  RH  044%=      5-min Rain = 0
KAM3 141222Z 19006KT 04/M07 A3021 RMK A01 T00441066  RH  044%=      5-min Rain = 0
KAM3 141223Z 19007KT 05/M07 A3021 RMK A01 T00451066  RH  044%=      5-min Rain = 0
KAM3 141224Z 18008KT 05/M07 A3021 RMK A01 T00451066  RH  044%=      5-min Rain = 0
KAM3 141225Z 19007KT 05/M07 A3021 RMK A01 T00461066  RH  044%=      5-min Rain = 0
KAM3 141226Z 19009KT 05/M07 A3021 RMK A01 T00471066  RH  044%=      5-min Rain = 0
KAM3 141227Z 19011KT 05/M07 A3021 RMK A01 T00471066  RH  044%=      5-min Rain = 0
KAM3 141228Z 19012KT 05/M07 A3021 RMK A01 T00481066  RH  043%=      5-min Rain = 0
KAM3 141229Z 19012KT 05/M07 A3021 RMK A01 T00501066  RH  043%=      5-min Rain = 0
KAM3 141230Z 19011KT 05/M07 A3021 RMK A01 T00511067  RH  042%=      5-min Rain = 0
KAM3 141231Z 19010KT 05/M07 A3021 RMK A01 T00511067  RH  042%=      5-min Rain = 0
KAM3 141232Z 19008KT 05/M07 A3021 RMK A01 T00511067  RH  042%=      5-min Rain = 0
KAM3 141233Z 19008KT 05/M07 A3021 RMK A01 T00501068  RH  042%=      5-min Rain = 0
KAM3 141234Z 19009KT 05/M07 A3021 RMK A01 T00491068  RH  043%=      5-min Rain = 0
KAM3 141235Z 19009KT 05/M07 A3021 RMK A01 T00481068  RH  043%=      5-min Rain = 0
KAM3 141236Z 19007KT 05/M07 A3021 RMK A01 T00471068  RH  043%=      5-min Rain = 0
KAM3 141237Z 19007KT 05/M07 A3021 RMK A01 T00471068  RH  043%=      5-min Rain = 0
KAM3 141238Z 19007KT 05/M07 A3021 RMK A01 T00461068  RH  043%=      5-min Rain = 0
KAM3 141239Z 19007KT 05/M07 A3021 RMK A01 T00461068  RH  043%=      5-min Rain = 0
KAM3 141240Z 20006KT 05/M07 A3021 RMK A01 T00451069  RH  043%=      5-min Rain = 0
KAM3 141241Z 21005KT 04/M07 A3021 RMK A01 T00441069  RH  044%=      5-min Rain = 0
KAM3 141242Z 21004KT 04/M07 A3021 RMK A01 T00441069  RH  044%=      5-min Rain = 0
KAM3 141243Z 22005KT 04/M07 A3021 RMK A01 T00431068  RH  044%=      5-min Rain = 0
KAM3 141244Z 23004KT 04/M07 A3022 RMK A01 T00421068  RH  044%=      5-min Rain = 0
KAM3 141245Z 22004KT 04/M07 A3022 RMK A01 T00421069  RH  044%=      5-min Rain = 0
KAM3 141246Z 22005KT 04/M07 A3022 RMK A01 T00411070  RH  044%=      5-min Rain = 0
KAM3 141247Z 22005KT 04/M07 A3022 RMK A01 T00411069  RH  045%=      5-min Rain = 0
KAM3 141248Z 22005KT 04/M07 A3022 RMK A01 T00411069  RH  045%=      5-min Rain = 0
KAM3 141249Z 22005KT 04/M07 A3022 RMK A01 T00401069  RH  045%=      5-min Rain = 0
KAM3 141250Z 22005KT 04/M07 A3022 RMK A01 T00401069  RH  045%=      5-min Rain = 0
KAM3 141251Z 22006KT 04/M07 A3022 RMK A01 T00391069  RH  045%=      5-min Rain = 0
KAM3 141252Z 21005KT 04/M07 A3022 RMK A01 T00391069  RH  045%=      5-min Rain = 0
KAM3 141253Z 21005KT 04/M07 A3022 RMK A01 T00391069  RH  045%=      5-min Rain = 0
KAM3 141254Z 21005KT 04/M07 A3022 RMK A01 T00391069  RH  045%=      5-min Rain = 0
KAM3 141255Z 21005KT 04/M07 A3022 RMK A01 T00391069  RH  045%=      5-min Rain = 0
KAM3 141256Z 22005KT 04/M07 A3022 RMK A01 T00391068  RH  045%=      5-min Rain = 0
KAM3 141257Z 23004KT 04/M07 A3022 RMK A01 T00391068  RH  046%=      5-min Rain = 0
KAM3 141258Z 22004KT 04/M07 A3022 RMK A01 T00381069  RH  046%=      5-min Rain = 0
KAM3 141259Z 22004KT 04/M07 A3022 RMK A01 T00381068  RH  046%=      5-min Rain = 0
KAM3 141300Z 22006KT 04/M07 A3022 RMK A01 T00381068  RH  046%=      5-min Rain = 0
KAM3 141301Z 22007KT 04/M07 A3022 RMK A01 T00371068  RH  046%=      5-min Rain = 0
KAM3 141302Z 22008KT 04/M07 A3022 RMK A01 T00391067  RH  046%=      5-min Rain = 0
KAM3 141303Z 22008KT 04/M07 A3022 RMK A01 T00391067  RH  046%=      5-min Rain = 0
KAM3 141304Z 21008KT 04/M07 A3022 RMK A01 T00401067  RH  046%=      5-min Rain = 0
KAM3 141305Z 22010KT 04/M07 A3022 RMK A01 T00411067  RH  045%=      5-min Rain = 0
KAM3 141306Z 21009KT 04/M07 A3022 RMK A01 T00421066  RH  045%=      5-min Rain = 0
KAM3 141307Z 21012KT 04/M07 A3022 RMK A01 T00421066  RH  045%=      5-min Rain = 0
KAM3 141308Z 22010KT 04/M07 A3022 RMK A01 T00431066  RH  045%=      5-min Rain = 0
KAM3 141309Z 22010KT 04/M07 A3022 RMK A01 T00441066  RH  045%=      5-min Rain = 0
KAM3 141310Z 22012KT 05/M07 A3022 RMK A01 T00451066  RH  044%=      5-min Rain = 0
KAM3 141311Z 22010KT 05/M07 A3022 RMK A01 T00451066  RH  044%=      5-min Rain = 0
KAM3 141312Z 22010KT 05/M07 A3022 RMK A01 T00461066  RH  044%=      5-min Rain = 0
KAM3 141313Z 22011KT 05/M07 A3022 RMK A01 T00461067  RH  044%=      5-min Rain = 0
KAM3 141314Z 22010KT 05/M07 A3022 RMK A01 T00461067  RH  044%=      5-min Rain = 0
KAM3 141315Z 22008KT 05/M07 A3023 RMK A01 T00461066  RH  044%=      5-min Rain = 0
KAM3 141316Z 22008KT 05/M07 A3023 RMK A01 T00461066  RH  044%=      5-min Rain = 0
KAM3 141317Z 22007KT 05/M07 A3023 RMK A01 T00461066  RH  044%=      5-min Rain = 0
KAM3 141318Z 22008KT 05/M07 A3023 RMK A01 T00451067  RH  044%=      5-min Rain = 0
KAM3 141319Z 21010KT 04/M07 A3023 RMK A01 T00441067  RH  044%=      5-min Rain = 0
KAM3 141320Z 21009KT 05/M07 A3022 RMK A01 T00451066  RH  044%=      5-min Rain = 0
KAM3 141321Z 21007KT 05/M07 A3022 RMK A01 T00451066  RH  044%=      5-min Rain = 0
KAM3 141322Z 21007KT 05/M07 A3022 RMK A01 T00451066  RH  044%=      5-min Rain = 0
KAM3 141323Z 21007KT 04/M07 A3022 RMK A01 T00441067  RH  044%=      5-min Rain = 0
KAM3 141324Z 20008KT 04/M07 A3022 RMK A01 T00431066  RH  045%=      5-min Rain = 0
KAM3 141325Z 21007KT 04/M07 A3022 RMK A01 T00431066  RH  045%=      5-min Rain = 0
KAM3 141326Z 20006KT 04/M07 A3022 RMK A01 T00431066  RH  045%=      5-min Rain = 0
KAM3 141327Z 21006KT 04/M07 A3022 RMK A01 T00431067  RH  045%=      5-min Rain = 0
KAM3 141328Z 20006KT 04/M07 A3022 RMK A01 T00421067  RH  045%=      5-min Rain = 0
KAM3 141329Z 21006KT 04/M07 A3022 RMK A01 T00411067  RH  045%=      5-min Rain = 0
KAM3 141330Z 21007KT 04/M07 A3022 RMK A01 T00391067  RH  046%=      5-min Rain = 0
KAM3 141331Z 21007KT 04/M07 A3022 RMK A01 T00391067  RH  046%=      5-min Rain = 0
KAM3 141332Z 21008KT 04/M07 A3022 RMK A01 T00401066  RH  046%=      5-min Rain = 0
KAM3 141333Z 21007KT 04/M07 A3022 RMK A01 T00421066  RH  046%=      5-min Rain = 0
KAM3 141334Z 21008KT 04/M07 A3022 RMK A01 T00421066  RH  045%=      5-min Rain = 0
KAM3 141335Z 21007KT 04/M07 A3022 RMK A01 T00411066  RH  046%=      5-min Rain = 0
KAM3 141336Z 21008KT 04/M07 A3022 RMK A01 T00411066  RH  046%=      5-min Rain = 0
KAM3 141337Z 21007KT 04/M07 A3022 RMK A01 T00411066  RH  046%=      5-min Rain = 0
KAM3 141338Z 20007KT 04/M07 A3022 RMK A01 T00411065  RH  046%=      5-min Rain = 0
KAM3 141339Z 20009KT 04/M07 A3022 RMK A01 T00411065  RH  046%=      5-min Rain = 0
KAM3 141340Z 22007KT 04/M07 A3022 RMK A01 T00421065  RH  046%=      5-min Rain = 0
KAM3 141341Z 20008KT 04/M07 A3022 RMK A01 T00421065  RH  046%=      5-min Rain = 0
KAM3 141342Z 21009KT 04/M07 A3022 RMK A01 T00421065  RH  046%=      5-min Rain = 0
KAM3 141343Z 21010KT 04/M06 A3022 RMK A01 T00421064  RH  046%=      5-min Rain = 0
KAM3 141344Z 23007KT 04/M06 A3022 RMK A01 T00441064  RH  045%=      5-min Rain = 0
KAM3 141345Z 21007KT 04/M06 A3022 RMK A01 T00441064  RH  045%=      5-min Rain = 0
KAM3 141346Z 22009KT 04/M06 A3022 RMK A01 T00431064  RH  045%=      5-min Rain = 0
KAM3 141347Z 22009KT 04/M06 A3022 RMK A01 T00431064  RH  046%=      5-min Rain = 0
KAM3 141348Z 22008KT 04/M06 A3022 RMK A01 T00441064  RH  045%=      5-min Rain = 0
KAM3 141349Z 22007KT 04/M06 A3022 RMK A01 T00441064  RH  045%=      5-min Rain = 0
KAM3 141350Z 23008KT 04/M06 A3022 RMK A01 T00431064  RH  046%=      5-min Rain = 0
KAM3 141351Z 23007KT 04/M06 A3022 RMK A01 T00421064  RH  046%=      5-min Rain = 0
KAM3 141352Z 22008KT 04/M06 A3022 RMK A01 T00421064  RH  046%=      5-min Rain = 0
KAM3 141353Z 22008KT 04/M06 A3022 RMK A01 T00421064  RH  046%=      5-min Rain = 0
KAM3 141354Z 22008KT 04/M06 A3022 RMK A01 T00421063  RH  046%=      5-min Rain = 0
KAM3 141355Z 22009KT 04/M06 A3022 RMK A01 T00421063  RH  046%=      5-min Rain = 0
KAM3 141356Z 21009KT 04/M06 A3022 RMK A01 T00411063  RH  046%=      5-min Rain = 0
KAM3 141357Z 21009KT 04/M06 A3022 RMK A01 T00411063  RH  046%=      5-min Rain = 0
KAM3 141358Z 21010KT 04/M06 A3022 RMK A01 T00411063  RH  047%=      5-min Rain = 0
KAM3 141359Z 21010KT 04/M06 A3022 RMK A01 T00431062  RH  046%=      5-min Rain = 0
KAM3 141400Z 21009KT 04/M06 A3022 RMK A01 T00441062  RH  046%=      5-min Rain = 0
KAM3 141401Z 21010KT 04/M06 A3022 RMK A01 T00441062  RH  046%=      5-min Rain = 0
KAM3 141402Z 21009KT 04/M06 A3022 RMK A01 T00441062  RH  046%=      5-min Rain = 0
KAM3 141403Z 21009KT 04/M06 A3022 RMK A01 T00441062  RH  046%=      5-min Rain = 0
KAM3 141404Z 21010KT 04/M06 A3022 RMK A01 T00441061  RH  046%=      5-min Rain = 0
KAM3 141405Z 21010KT 04/M06 A3022 RMK A01 T00441061  RH  046%=      5-min Rain = 0
KAM3 141406Z 21011KT 04/M06 A3022 RMK A01 T00441061  RH  046%=      5-min Rain = 0
KAM3 141407Z 21010KT 04/M06 A3022 RMK A01 T00441061  RH  046%=      5-min Rain = 0
KAM3 141408Z 21010KT 05/M06 A3022 RMK A01 T00451061  RH  046%=      5-min Rain = 0
KAM3 141409Z 20011KT 05/M06 A3022 RMK A01 T00451061  RH  046%=      5-min Rain = 0
KAM3 141410Z 20010KT 05/M06 A3022 RMK A01 T00451061  RH  046%=      5-min Rain = 0
KAM3 141411Z 20011KT 05/M06 A3022 RMK A01 T00451061  RH  046%=      5-min Rain = 0
KAM3 141412Z 20010KT 05/M06 A3022 RMK A01 T00451061  RH  046%=      5-min Rain = 0
KAM3 141413Z 20011KT 05/M06 A3022 RMK A01 T00451061  RH  046%=      5-min Rain = 0
KAM3 141414Z 20010KT 05/M06 A3022 RMK A01 T00451061  RH  046%=      5-min Rain = 0
KAM3 141415Z 20011KT 05/M06 A3022 RMK A01 T00451061  RH  046%=      5-min Rain = 0
KAM3 141416Z 20010KT 05/M06 A3022 RMK A01 T00451060  RH  046%=      5-min Rain = 0
KAM3 141417Z 20009KT 05/M06 A3022 RMK A01 T00461060  RH  046%=      5-min Rain = 0
KAM3 141418Z 20010KT 05/M06 A3022 RMK A01 T00461060  RH  046%=      5-min Rain = 0
KAM3 141419Z 20010KT 05/M06 A3022 RMK A01 T00461060  RH  046%=      5-min Rain = 0
KAM3 141420Z 20012KT 05/M06 A3022 RMK A01 T00461060  RH  046%=      5-min Rain = 0
KAM3 141421Z 21010KT 05/M06 A3022 RMK A01 T00471059  RH  046%=      5-min Rain = 0
KAM3 141422Z 21009KT 05/M06 A3022 RMK A01 T00471059  RH  046%=      5-min Rain = 0
KAM3 141423Z 21009KT 05/M06 A3022 RMK A01 T00481059  RH  046%=      5-min Rain = 0
KAM3 141424Z 21009KT 05/M06 A3022 RMK A01 T00481059  RH  046%=      5-min Rain = 0
KAM3 141425Z 21009KT 05/M06 A3022 RMK A01 T00491059  RH  045%=      5-min Rain = 0
KAM3 141426Z 22010KT 05/M06 A3022 RMK A01 T00501059  RH  045%=      5-min Rain = 0
KAM3 141427Z 22009KT 05/M06 A3022 RMK A01 T00501059  RH  045%=      5-min Rain = 0
KAM3 141428Z 22009KT 05/M06 A3022 RMK A01 T00511059  RH  045%=      5-min Rain = 0
KAM3 141429Z 20011KT 05/M06 A3022 RMK A01 T00521059  RH  045%=      5-min Rain = 0
KAM3 141430Z 21010KT 05/M06 A3022 RMK A01 T00541058  RH  044%=      5-min Rain = 0
KAM3 141431Z 21011KT 06/M06 A3022 RMK A01 T00571058  RH  043%=      5-min Rain = 0
KAM3 141432Z 21013KT 06/M06 A3022 RMK A01 T00611057  RH  042%=      5-min Rain = 0
KAM3 141433Z 20012KT 07/M06 A3022 RMK A01 T00661058  RH  041%=      5-min Rain = 0
KAM3 141434Z 21010KT 07/M06 A3022 RMK A01 T00681059  RH  040%=      5-min Rain = 0
KAM3 141435Z 20011KT 07/M06 A3022 RMK A01 T00691060  RH  039%=      5-min Rain = 0
KAM3 141436Z 21012KT 07/M06 A3022 RMK A01 T00701061  RH  039%=      5-min Rain = 0
KAM3 141437Z 21013KT 07/M06 A3022 RMK A01 T00711061  RH  039%=      5-min Rain = 0
KAM3 141438Z 21013KT 07/M06 A3022 RMK A01 T00721061  RH  038%=      5-min Rain = 0
KAM3 141439Z 20016KT 07/M06 A3022 RMK A01 T00731061  RH  038%=      5-min Rain = 0
KAM3 141440Z 20017G23KT 07/M06 A3022 RMK A01 T00741063  RH  037%=      5-min Rain = 0
KAM3 141441Z 20015KT 08/M06 A3022 RMK A01 T00751063  RH  037%=      5-min Rain = 0
KAM3 141442Z 21019KT 08/M06 A3022 RMK A01 T00781062  RH  036%=      5-min Rain = 0
KAM3 141443Z 20015G20KT 08/M06 A3022 RMK A01 T00781063  RH  036%=      5-min Rain = 0
KAM3 141444Z 20015KT 08/M06 A3022 RMK A01 T00801062  RH  036%=      5-min Rain = 0
KAM3 141445Z 20016G22KT 08/M06 A3022 RMK A01 T00811062  RH  036%=      5-min Rain = 0
KAM3 141446Z 20021G27KT 08/M06 A3022 RMK A01 T00821064  RH  035%=      5-min Rain = 0
KAM3 141447Z 20017KT 08/M06 A3022 RMK A01 T00821064  RH  035%=      5-min Rain = 0
KAM3 141448Z 20020KT 08/M06 A3022 RMK A01 T00821063  RH  035%=      5-min Rain = 0
KAM3 141449Z 20019KT 08/M06 A3022 RMK A01 T00821063  RH  035%=      5-min Rain = 0
KAM3 141450Z 20015KT 08/M06 A3022 RMK A01 T00821063  RH  035%=      5-min Rain = 0
KAM3 141451Z 21019KT 08/M06 A3022 RMK A01 T00821063  RH  035%=      5-min Rain = 0
KAM3 141452Z 20018KT 08/M06 A3022 RMK A01 T00821063  RH  035%=      5-min Rain = 0
KAM3 141453Z 20018G24KT 08/M06 A3022 RMK A01 T00831062  RH  035%=      5-min Rain = 0
KAM3 141454Z 20018KT 08/M06 A3022 RMK A01 T00831061  RH  035%=      5-min Rain = 0
KAM3 141455Z 20017KT 08/M06 A3022 RMK A01 T00841061  RH  035%=      5-min Rain = 0
KAM3 141456Z 20014KT 09/M06 A3022 RMK A01 T00851061  RH  035%=      5-min Rain = 0
KAM3 141457Z 21014KT 09/M06 A3022 RMK A01 T00851061  RH  035%=      5-min Rain = 0
KAM3 141458Z 20016KT 09/M06 A3021 RMK A01 T00861059  RH  035%=      5-min Rain = 0
KAM3 141459Z 20017KT 09/M06 A3022 RMK A01 T00871060  RH  035%=      5-min Rain = 0
KAM3 141500Z 20017KT 09/M06 A3022 RMK A01 T00871060  RH  035%=      5-min Rain = 0
KAM3 141501Z 20016KT 09/M06 A3022 RMK A01 T00871059  RH  035%=      5-min Rain = 0
KAM3 141502Z 20014G19KT 09/M06 A3022 RMK A01 T00871059  RH  035%=      5-min Rain = 0
KAM3 141503Z 21015KT 09/M06 A3022 RMK A01 T00871059  RH  035%=      5-min Rain = 0
KAM3 141504Z 21016G21KT 09/M06 A3022 RMK A01 T00891058  RH  035%=      5-min Rain = 0
KAM3 141505Z 20016KT 09/M06 A3022 RMK A01 T00901058  RH  034%=      5-min Rain = 0
KAM3 141506Z 21015KT 09/M06 A3022 RMK A01 T00911058  RH  034%=      5-min Rain = 0
KAM3 141507Z 20015KT 09/M06 A3022 RMK A01 T00921058  RH  034%=      5-min Rain = 0
KAM3 141508Z 22013KT 09/M06 A3022 RMK A01 T00941057  RH  034%=      5-min Rain = 0
KAM3 141509Z 22013KT 10/M06 A3022 RMK A01 T00961057  RH  034%=      5-min Rain = 0
KAM3 141510Z 22013KT 10/M06 A3022 RMK A01 T00961057  RH  033%=      5-min Rain = 0
KAM3 141511Z 20013KT 10/M06 A3022 RMK A01 T00971056  RH  034%=      5-min Rain = 0
KAM3 141512Z 20011KT 10/M06 A3022 RMK A01 T00971057  RH  033%=      5-min Rain = 0
KAM3 141513Z 20014KT 10/M06 A3022 RMK A01 T00971057  RH  033%=      5-min Rain = 0
KAM3 141514Z 21015KT 10/M06 A3022 RMK A01 T00971056  RH  033%=      5-min Rain = 0
KAM3 141515Z 21012G17KT 10/M06 A3021 RMK A01 T00991056  RH  033%=      5-min Rain = 0
KAM3 141516Z 21015KT 10/M06 A3021 RMK A01 T01001056  RH  033%=      5-min Rain = 0
KAM3 141517Z 20013KT 10/M06 A3021 RMK A01 T01001056  RH  033%=      5-min Rain = 0
KAM3 141518Z 20012KT 10/M06 A3021 RMK A01 T01011056  RH  033%=      5-min Rain = 0
KAM3 141519Z 20013KT 10/M06 A3021 RMK A01 T01021055  RH  033%=      5-min Rain = 0
KAM3 141520Z 20011KT 10/M06 A3021 RMK A01 T01041055  RH  032%=      5-min Rain = 0
KAM3 141521Z 19012G18KT 11/M05 A3021 RMK A01 T01061054  RH  032%=      5-min Rain = 0
KAM3 141522Z 19013KT 11/M06 A3021 RMK A01 T01081055  RH  031%=      5-min Rain = 0
KAM3 141523Z 20015KT 11/M06 A3021 RMK A01 T01081056  RH  031%=      5-min Rain = 0
KAM3 141524Z 19016G21KT 11/M06 A3021 RMK A01 T01071056  RH  031%=      5-min Rain = 0
KAM3 141525Z 19017KT 11/M06 A3021 RMK A01 T01061056  RH  031%=      5-min Rain = 0
KAM3 141526Z 21015KT 11/M06 A3021 RMK A01 T01051057  RH  032%=      5-min Rain = 0
KAM3 141527Z 20013G20KT 11/M06 A3021 RMK A01 T01051056  RH  032%=      5-min Rain = 0
KAM3 141528Z 20017G22KT 11/M06 A3021 RMK A01 T01081055  RH  031%=      5-min Rain = 0
KAM3 141529Z 19016G21KT 11/M06 A302 RMK A01 T01081056  RH  031%=      5-min Rain = 0
KAM3 141530Z 20018KT 11/M06 A302 RMK A01 T01071056  RH  031%=      5-min Rain = 0
KAM3 141531Z 20013G18KT 11/M06 A302 RMK A01 T01071056  RH  031%=      5-min Rain = 0
KAM3 141532Z 19011KT 11/M05 A302 RMK A01 T01081054  RH  032%=      5-min Rain = 0
KAM3 141533Z 20013G21KT 11/M05 A302 RMK A01 T01121053  RH  031%=      5-min Rain = 0
KAM3 141534Z 19017G27KT 11/M05 A302 RMK A01 T01131054  RH  031%=      5-min Rain = 0
KAM3 141535Z 19018KT 11/M05 A302 RMK A01 T01131053  RH  031%=      5-min Rain = 0
KAM3 141536Z 18014KT 11/M05 A302 RMK A01 T01111053  RH  031%=      5-min Rain = 0
KAM3 141537Z 19015G20KT 11/M05 A302 RMK A01 T01121053  RH  031%=      5-min Rain = 0
KAM3 141538Z 19020G25KT 11/M05 A3019 RMK A01 T01121054  RH  031%=      5-min Rain = 0
KAM3 141539Z 19021KT 11/M06 A3019 RMK A01 T01121055  RH  031%=      5-min Rain = 0
KAM3 141540Z 20021KT 11/M06 A3019 RMK A01 T01121055  RH  031%=      5-min Rain = 0
KAM3 141541Z 20018KT 11/M05 A3019 RMK A01 T01121054  RH  031%=      5-min Rain = 0
KAM3 141542Z 19017G24KT 11/M05 A3019 RMK A01 T01131053  RH  031%=      5-min Rain = 0
KAM3 141543Z 19021KT 12/M05 A3019 RMK A01 T01151053  RH  030%=      5-min Rain = 0
KAM3 141544Z 18021KT 12/M05 A3019 RMK A01 T01161053  RH  030%=      5-min Rain = 0
KAM3 141545Z 19019KT 12/M05 A3019 RMK A01 T01181052  RH  030%=      5-min Rain = 0
KAM3 141546Z 19018G24KT 12/M05 A3019 RMK A01 T01191052  RH  030%=      5-min Rain = 0
KAM3 141547Z 19022G27KT 12/M05 A3018 RMK A01 T01211051  RH  030%=      5-min Rain = 0
KAM3 141548Z 18019KT 12/M05 A3018 RMK A01 T01211052  RH  030%=      5-min Rain = 0
KAM3 141549Z 19021KT 12/M05 A3018 RMK A01 T01211052  RH  030%=      5-min Rain = 0
KAM3 141550Z 20023G28KT 12/M05 A3018 RMK A01 T01211052  RH  030%=      5-min Rain = 0
KAM3 141551Z 19017G24KT 12/M05 A3018 RMK A01 T01201051  RH  030%=      5-min Rain = 0
KAM3 141552Z 18022G27KT 12/M05 A3018 RMK A01 T01241049  RH  030%=      5-min Rain = 0
KAM3 141553Z 18024KT 12/M05 A3018 RMK A01 T01241050  RH  029%=      5-min Rain = 0
KAM3 141554Z 19021KT 12/M05 A3018 RMK A01 T01221049  RH  030%=      5-min Rain = 0
KAM3 141555Z 19020KT 12/M05 A3018 RMK A01 T01241048  RH  030%=      5-min Rain = 0
KAM3 141556Z 19019G24KT 13/M05 A3018 RMK A01 T01261047  RH  030%=      5-min Rain = 0
KAM3 141557Z 19019G24KT 13/M05 A3018 RMK A01 T01281046  RH  029%=      5-min Rain = 0
KAM3 141558Z 19019G26KT 13/M05 A3018 RMK A01 T01301047  RH  029%=      5-min Rain = 0
KAM3 141559Z 19021KT 13/M05 A3018 RMK A01 T01311047  RH  029%=      5-min Rain = 0
KAM3 141600Z 19020G31KT 13/M05 A3018 RMK A01 T01311046  RH  029%=      5-min Rain = 0
KAM3 141601Z 19025G31KT 13/M05 A3017 RMK A01 T01311047  RH  029%=      5-min Rain = 0
KAM3 141602Z 19023G31KT 13/M05 A3017 RMK A01 T01291047  RH  029%=      5-min Rain = 0
KAM3 141603Z 18024G29KT 13/M05 A3017 RMK A01 T01281047  RH  029%=      5-min Rain = 0
KAM3 141604Z 18021KT 13/M05 A3017 RMK A01 T01281047  RH  029%=      5-min Rain = 0
KAM3 141605Z 18022G27KT 13/M05 A3017 RMK A01 T01291046  RH  029%=      5-min Rain = 0
KAM3 141606Z 20020KT 13/M05 A3017 RMK A01 T01301046  RH  029%=      5-min Rain = 0
KAM3 141607Z 19021G27KT 13/M05 A3017 RMK A01 T01321045  RH  029%=      5-min Rain = 0
KAM3 141608Z 19024G30KT 13/M05 A3017 RMK A01 T01331045  RH  029%=      5-min Rain = 0
KAM3 141609Z 19025KT 13/M05 A3017 RMK A01 T01341045  RH  029%=      5-min Rain = 0
KAM3 141610Z 20024KT 13/M05 A3017 RMK A01 T01341046  RH  028%=      5-min Rain = 0
KAM3 141611Z 19021KT 13/M05 A3017 RMK A01 T01321046  RH  029%=      5-min Rain = 0
KAM3 141612Z 19019G25KT 13/M04 A3017 RMK A01 T01341044  RH  029%=      5-min Rain = 0
KAM3 141613Z 19024KT 14/M04 A3017 RMK A01 T01371044  RH  028%=      5-min Rain = 0
KAM3 141614Z 19020KT 14/M04 A3018 RMK A01 T01361044  RH  028%=      5-min Rain = 0
KAM3 141615Z 20024KT 14/M04 A3017 RMK A01 T01361044  RH  028%=      5-min Rain = 0
KAM3 141616Z 20024G30KT 13/M05 A3017 RMK A01 T01331045  RH  029%=      5-min Rain = 0
KAM3 141617Z 20022G30KT 13/M04 A3017 RMK A01 T01321044  RH  029%=      5-min Rain = 0
KAM3 141618Z 19026G31KT 13/M04 A3017 RMK A01 T01331043  RH  029%=      5-min Rain = 0
KAM3 141619Z 20026G31KT 13/M05 A3017 RMK A01 T01311045  RH  029%=      5-min Rain = 0
KAM3 141620Z 20020KT 13/M04 A3017 RMK A01 T01311043  RH  029%=      5-min Rain = 0
KAM3 141621Z 20023G28KT 14/M04 A3017 RMK A01 T01361041  RH  029%=      5-min Rain = 0
KAM3 141622Z 20026KT 14/M04 A3017 RMK A01 T01381043  RH  028%=      5-min Rain = 0
KAM3 141623Z 20025KT 14/M04 A3017 RMK A01 T01381044  RH  028%=      5-min Rain = 0
KAM3 141624Z 20029KT 14/M04 A3017 RMK A01 T01371042  RH  029%=      5-min Rain = 0
KAM3 141625Z 20026G31KT 14/M04 A3017 RMK A01 T01371043  RH  028%=      5-min Rain = 0
KAM3 141626Z 20026KT 14/M04 A3017 RMK A01 T01361043  RH  028%=      5-min Rain = 0
KAM3 141627Z 19026KT 14/M04 A3017 RMK A01 T01371044  RH  028%=      5-min Rain = 0
KAM3 141628Z 19026KT 14/M05 A3017 RMK A01 T01361045  RH  028%=      5-min Rain = 0
KAM3 141629Z 19022KT 14/M04 A3017 RMK A01 T01361044  RH  028%=      5-min Rain = 0
KAM3 141630Z 19026KT 14/M04 A3017 RMK A01 T01381042  RH  028%=      5-min Rain = 0
KAM3 141631Z 20024KT 14/M04 A3017 RMK A01 T01391042  RH  028%=      5-min Rain = 0
KAM3 141632Z 19023KT 14/M04 A3017 RMK A01 T01381043  RH  028%=      5-min Rain = 0
KAM3 141633Z 19023G29KT 14/M04 A3017 RMK A01 T01391042  RH  028%=      5-min Rain = 0
KAM3 141634Z 20022KT 14/M04 A3017 RMK A01 T01381043  RH  028%=      5-min Rain = 0
KAM3 141635Z 19023G28KT 14/M04 A3017 RMK A01 T01371042  RH  029%=      5-min Rain = 0
KAM3 141636Z 19022G28KT 14/M04 A3017 RMK A01 T01381042  RH  028%=      5-min Rain = 0
KAM3 141637Z 19022G27KT 14/M04 A3017 RMK A01 T01401041  RH  028%=      5-min Rain = 0
KAM3 141638Z 19023G29KT 14/M04 A3017 RMK A01 T01401042  RH  028%=      5-min Rain = 0
KAM3 141639Z 19020G26KT 14/M04 A3017 RMK A01 T01381042  RH  028%=      5-min Rain = 0
KAM3 141640Z 19021G28KT 14/M04 A3017 RMK A01 T01381040  RH  029%=      5-min Rain = 0
KAM3 141641Z 19020KT 14/M04 A3017 RMK A01 T01391039  RH  029%=      5-min Rain = 0
KAM3 141642Z 19021G26KT 14/M04 A3017 RMK A01 T01411039  RH  028%=      5-min Rain = 0
KAM3 141643Z 18022KT 14/M04 A3017 RMK A01 T01421039  RH  028%=      5-min Rain = 0
KAM3 141644Z 18020G25KT 14/M04 A3017 RMK A01 T01441038  RH  028%=      5-min Rain = 0
KAM3 141645Z 19021G26KT 15/M04 A3017 RMK A01 T01461037  RH  028%=      5-min Rain = 0
KAM3 141646Z 20024KT 15/M04 A3017 RMK A01 T01481037  RH  028%=      5-min Rain = 0
KAM3 141647Z 20024KT 15/M04 A3017 RMK A01 T01461037  RH  028%=      5-min Rain = 0
KAM3 141648Z 20023G29KT 14/M04 A3017 RMK A01 T01441036  RH  029%=      5-min Rain = 0
KAM3 141649Z 21022G28KT 14/M04 A3017 RMK A01 T01421037  RH  029%=      5-min Rain = 0
KAM3 141650Z 20021G28KT 14/M04 A3017 RMK A01 T01421037  RH  029%=      5-min Rain = 0
KAM3 141651Z 21022G27KT 14/M04 A3017 RMK A01 T01421035  RH  029%=      5-min Rain = 0
KAM3 141652Z 21023KT 14/M03 A3017 RMK A01 T01431034  RH  029%=      5-min Rain = 0
KAM3 141653Z 21016KT 15/M03 A3017 RMK A01 T01461034  RH  029%=      5-min Rain = 0
KAM3 141654Z 20020G28KT 15/M03 A3017 RMK A01 T01501033  RH  028%=      5-min Rain = 0
KAM3 141655Z 19025KT 15/M03 A3017 RMK A01 T01491034  RH  028%=      5-min Rain = 0
KAM3 141656Z 20021KT 15/M03 A3017 RMK A01 T01471034  RH  029%=      5-min Rain = 0
KAM3 141657Z 20020KT 15/M03 A3017 RMK A01 T01471034  RH  028%=      5-min Rain = 0
KAM3 141658Z 20021KT 15/M03 A3017 RMK A01 T01481034  RH  028%=      5-min Rain = 0
KAM3 141659Z 21019G24KT 15/M04 A3017 RMK A01 T01481035  RH  028%=      5-min Rain = 0
KAM3 141700Z 19021G26KT 15/M03 A3017 RMK A01 T01491034  RH  028%=      5-min Rain = 0
KAM3 141701Z 20018KT 15/M04 A3017 RMK A01 T01491035  RH  028%=      5-min Rain = 0
KAM3 141702Z 20023G29KT 15/M03 A3017 RMK A01 T01511032  RH  028%=      5-min Rain = 0
KAM3 141703Z 20024G29KT 15/M03 A3017 RMK A01 T01531033  RH  028%=      5-min Rain = 0
KAM3 141704Z 19024G29KT 15/M03 A3017 RMK A01 T01521033  RH  028%=      5-min Rain = 0
KAM3 141705Z 19024KT 15/M03 A3016 RMK A01 T01521033  RH  028%=      5-min Rain = 0
KAM3 141706Z 20023KT 15/M03 A3016 RMK A01 T01531032  RH  028%=      5-min Rain = 0
KAM3 141707Z 19022G27KT 16/M03 A3016 RMK A01 T01561031  RH  028%=      5-min Rain = 0
KAM3 141708Z 20022KT 16/M03 A3016 RMK A01 T01551032  RH  027%=      5-min Rain = 0
KAM3 141709Z 20022G27KT 16/M03 A3016 RMK A01 T01551032  RH  028%=      5-min Rain = 0
KAM3 141710Z 20020G25KT 16/M03 A3016 RMK A01 T01551032  RH  027%=      5-min Rain = 0
KAM3 141711Z 21023G30KT 16/M03 A3016 RMK A01 T01571033  RH  027%=      5-min Rain = 0
KAM3 141712Z 21021G26KT 16/M03 A3016 RMK A01 T01571031  RH  027%=      5-min Rain = 0
KAM3 141713Z 21022KT 16/M03 A3016 RMK A01 T01571031  RH  027%=      5-min Rain = 0
KAM3 141714Z 20016G21KT 16/M03 A3016 RMK A01 T01601028  RH  027%=      5-min Rain = 0
KAM3 141715Z 19020KT 17/M03 A3016 RMK A01 T01651029  RH  026%=      5-min Rain = 0
KAM3 141716Z 21024G29KT 16/M03 A3016 RMK A01 T01641031  RH  026%=      5-min Rain = 0
KAM3 141717Z 22023G28KT 16/M03 A3016 RMK A01 T01631029  RH  027%=      5-min Rain = 0
KAM3 141718Z 22024G31KT 16/M03 A3016 RMK A01 T01621030  RH  027%=      5-min Rain = 0
KAM3 141719Z 21025G31KT 16/M03 A3016 RMK A01 T01621029  RH  027%=      5-min Rain = 0
KAM3 141720Z 20026KT 16/M03 A3016 RMK A01 T01621029  RH  027%=      5-min Rain = 0
KAM3 141721Z 21021G26KT 16/M03 A3016 RMK A01 T01601029  RH  027%=      5-min Rain = 0
KAM3 141722Z 21023KT 16/M03 A3016 RMK A01 T01591029  RH  027%=      5-min Rain = 0
KAM3 141723Z 21024KT 16/M03 A3016 RMK A01 T01591029  RH  027%=      5-min Rain = 0
KAM3 141724Z 21025KT 16/M03 A3016 RMK A01 T01611029  RH  027%=      5-min Rain = 0
KAM3 141725Z 21022KT 16/M03 A3015 RMK A01 T01621029  RH  027%=      5-min Rain = 0
KAM3 141726Z 21025KT 17/M03 A3015 RMK A01 T01661027  RH  027%=      5-min Rain = 0
KAM3 141727Z 22023KT 17/M03 A3015 RMK A01 T01671027  RH  026%=      5-min Rain = 0
KAM3 141728Z 21022G27KT 17/M03 A3015 RMK A01 T01671027  RH  026%=      5-min Rain = 0
KAM3 141729Z 20025KT 17/M03 A3015 RMK A01 T01681027  RH  026%=      5-min Rain = 0
KAM3 141730Z 20025KT 17/M03 A3015 RMK A01 T01671028  RH  026%=      5-min Rain = 0
KAM3 141731Z 20024G29KT 16/M03 A3015 RMK A01 T01631030  RH  027%=      5-min Rain = 0
KAM3 141732Z 20021KT 16/M03 A3015 RMK A01 T01601029  RH  027%=      5-min Rain = 0
KAM3 141733Z 21023G29KT 16/M03 A3015 RMK A01 T01631028  RH  027%=      5-min Rain = 0
KAM3 141734Z 20026KT 17/M03 A3015 RMK A01 T01651028  RH  027%=      5-min Rain = 0
KAM3 141735Z 20025KT 17/M03 A3015 RMK A01 T01651029  RH  026%=      5-min Rain = 0
KAM3 141736Z 21020G26KT 16/M03 A3015 RMK A01 T01631030  RH  027%=      5-min Rain = 0
KAM3 141737Z 20020G29KT 16/M03 A3015 RMK A01 T01621029  RH  027%=      5-min Rain = 0
KAM3 141738Z 20022KT 17/M03 A3015 RMK A01 T01651028  RH  027%=      5-min Rain = 0
KAM3 141739Z 20022KT 17/M03 A3015 RMK A01 T01661028  RH  026%=      5-min Rain = 0
KAM3 141740Z 21020KT 17/M03 A3015 RMK A01 T01671028  RH  026%=      5-min Rain = 0
KAM3 141741Z 21022KT 17/M03 A3015 RMK A01 T01691027  RH  026%=      5-min Rain = 0
KAM3 141742Z 21021KT 17/M03 A3015 RMK A01 T01711027  RH  026%=      5-min Rain = 0
KAM3 141743Z 21020G25KT 17/M03 A3015 RMK A01 T01731025  RH  026%=      5-min Rain = 0
KAM3 141744Z 20020KT 18/M03 A3015 RMK A01 T01751026  RH  025%=      5-min Rain = 0
KAM3 141745Z 21021KT 17/M03 A3014 RMK A01 T01741028  RH  025%=      5-min Rain = 0
KAM3 141746Z 20020KT 17/M03 A3015 RMK A01 T01741027  RH  025%=      5-min Rain = 0
KAM3 141747Z 20021KT 17/M03 A3014 RMK A01 T01721028  RH  025%=      5-min Rain = 0
KAM3 141748Z 21023KT 17/M03 A3014 RMK A01 T01701029  RH  026%=      5-min Rain = 0
KAM3 141749Z 21023KT 17/M03 A3014 RMK A01 T01691029  RH  026%=      5-min Rain = 0
KAM3 141750Z 20022G27KT 17/M03 A3014 RMK A01 T01661030  RH  026%=      5-min Rain = 0
KAM3 141751Z 19019KT 16/M03 A3014 RMK A01 T01641030  RH  026%=      5-min Rain = 0
KAM3 141752Z 19021G27KT 16/M03 A3014 RMK A01 T01641029  RH  026%=      5-min Rain = 0
KAM3 141753Z 19020G26KT 17/M03 A3014 RMK A01 T01651030  RH  026%=      5-min Rain = 0
KAM3 141754Z 20022KT 17/M03 A3014 RMK A01 T01661030  RH  026%=      5-min Rain = 0
KAM3 141755Z 20023G29KT 17/M03 A3014 RMK A01 T01671027  RH  026%=      5-min Rain = 0
KAM3 141756Z 21024KT 17/M03 A3014 RMK A01 T01691026  RH  026%=      5-min Rain = 0
KAM3 141757Z 21020KT 17/M03 A3014 RMK A01 T01671028  RH  026%=      5-min Rain = 0
KAM3 141758Z 21022KT 17/M03 A3014 RMK A01 T01661028  RH  026%=      5-min Rain = 0
KAM3 141759Z 21021G26KT 16/M03 A3014 RMK A01 T01641029  RH  027%=      5-min Rain = 0
KAM3 141800Z 21019KT 16/M03 A3014 RMK A01 T01621028  RH  027%=      5-min Rain = 0
KAM3 141801Z 21020KT 17/M03 A3014 RMK A01 T01651027  RH  027%=      5-min Rain = 0
KAM3 141802Z 20020KT 17/M02 A3014 RMK A01 T01701024  RH  026%=      5-min Rain = 0
KAM3 141803Z 20020G25KT 17/M02 A3014 RMK A01 T01741024  RH  026%=      5-min Rain = 0
KAM3 141804Z 20021KT 18/M03 A3014 RMK A01 T01751025  RH  026%=      5-min Rain = 0
KAM3 141805Z 21021G27KT 18/M02 A3014 RMK A01 T01761024  RH  025%=      5-min Rain = 0
KAM3 141806Z 21016G21KT 18/M03 A3014 RMK A01 T01771025  RH  025%=      5-min Rain = 0
KAM3 141807Z 20018KT 18/M03 A3014 RMK A01 T01751027  RH  025%=      5-min Rain = 0
KAM3 141808Z 20024KT 17/M03 A3013 RMK A01 T01731027  RH  025%=      5-min Rain = 0
KAM3 141809Z 20021KT 17/M03 A3013 RMK A01 T01711025  RH  026%=      5-min Rain = 0
KAM3 141810Z 19019G24KT 17/M02 A3013 RMK A01 T01731024  RH  026%=      5-min Rain = 0
KAM3 141811Z 19018G23KT 17/M02 A3013 RMK A01 T01741024  RH  026%=      5-min Rain = 0
KAM3 141812Z 19020KT 17/M03 A3013 RMK A01 T01731026  RH  026%=      5-min Rain = 0
KAM3 141813Z 20018KT 17/M03 A3013 RMK A01 T01721026  RH  026%=      5-min Rain = 0
KAM3 141814Z 20020G25KT 17/M02 A3013 RMK A01 T01741023  RH  026%=      5-min Rain = 0
KAM3 141815Z 20022G27KT 18/M02 A3013 RMK A01 T01781024  RH  025%=      5-min Rain = 0
KAM3 141816Z 20019KT 18/M03 A3013 RMK A01 T01761025  RH  025%=      5-min Rain = 0
KAM3 141817Z 20024KT 18/M03 A3013 RMK A01 T01751026  RH  025%=      5-min Rain = 0
KAM3 141818Z 20022G28KT 18/M03 A3013 RMK A01 T01761026  RH  025%=      5-min Rain = 0
KAM3 141819Z 19021G27KT 17/M03 A3013 RMK A01 T01711028  RH  025%=      5-min Rain = 0
KAM3 141820Z 20022KT 17/M03 A3013 RMK A01 T01701026  RH  026%=      5-min Rain = 0
KAM3 141821Z 20020KT 17/M03 A3013 RMK A01 T01721025  RH  026%=      5-min Rain = 0
KAM3 141822Z 21020G27KT 17/M03 A3013 RMK A01 T01741025  RH  026%=      5-min Rain = 0
KAM3 141823Z 20022KT 18/M02 A3013 RMK A01 T01781023  RH  025%=      5-min Rain = 0
KAM3 141824Z 20020G25KT 18/M03 A3012 RMK A01 T01781026  RH  025%=      5-min Rain = 0
KAM3 141825Z 21019KT 18/M02 A3013 RMK A01 T01781024  RH  025%=      5-min Rain = 0
KAM3 141826Z 21017KT 18/M02 A3012 RMK A01 T01791024  RH  025%=      5-min Rain = 0
KAM3 141827Z 21021G26KT 18/M02 A3012 RMK A01 T01811021  RH  025%=      5-min Rain = 0
KAM3 141828Z 21019G24KT 18/M02 A3012 RMK A01 T01841021  RH  025%=      5-min Rain = 0
KAM3 141829Z 21019KT 18/M02 A3012 RMK A01 T01831022  RH  025%=      5-min Rain = 0
KAM3 141830Z 20019G25KT 18/M02 A3012 RMK A01 T01821022  RH  025%=      5-min Rain = 0
KAM3 141831Z 20019G24KT 18/M02 A3012 RMK A01 T01821022  RH  025%=      5-min Rain = 0
KAM3 141832Z 21018G23KT 18/M02 A3012 RMK A01 T01821021  RH  025%=      5-min Rain = 0
KAM3 141833Z 21023G29KT 19/M02 A3012 RMK A01 T01861019  RH  025%=      5-min Rain = 0
KAM3 141834Z 21023KT 19/M02 A3012 RMK A01 T01861021  RH  024%=      5-min Rain = 0
KAM3 141835Z 20023KT 18/M02 A3012 RMK A01 T01831022  RH  025%=      5-min Rain = 0
KAM3 141836Z 20021KT 18/M02 A3012 RMK A01 T01821022  RH  025%=      5-min Rain = 0
KAM3 141837Z 20020G25KT 18/M02 A3012 RMK A01 T01801023  RH  025%=      5-min Rain = 0
KAM3 141838Z 21018KT 18/M02 A3012 RMK A01 T01811021  RH  025%=      5-min Rain = 0
KAM3 141839Z 20021G27KT 18/M02 A3011 RMK A01 T01831021  RH  025%=      5-min Rain = 0
KAM3 141840Z 21018KT 18/M02 A3012 RMK A01 T01841022  RH  025%=      5-min Rain = 0
KAM3 141841Z 21021G28KT 18/M02 A3012 RMK A01 T01811024  RH  025%=      5-min Rain = 0
KAM3 141842Z 21025KT 18/M02 A3011 RMK A01 T01801022  RH  025%=      5-min Rain = 0
KAM3 141843Z 22019G24KT 18/M02 A3011 RMK A01 T01791022  RH  025%=      5-min Rain = 0
KAM3 141844Z 22018G24KT 18/M02 A3011 RMK A01 T01801020  RH  025%=      5-min Rain = 0
KAM3 141845Z 22021KT 18/M02 A3011 RMK A01 T01831020  RH  025%=      5-min Rain = 0
KAM3 141846Z 22023KT 19/M02 A3011 RMK A01 T01851020  RH  025%=      5-min Rain = 0
KAM3 141847Z 21021KT 18/M02 A3011 RMK A01 T01841021  RH  025%=      5-min Rain = 0
KAM3 141848Z 21016KT 18/M02 A3011 RMK A01 T01831021  RH  025%=      5-min Rain = 0
KAM3 141849Z 21018KT 18/M02 A3011 RMK A01 T01831020  RH  025%=      5-min Rain = 0
KAM3 141850Z 21022G28KT 19/M02 A301 RMK A01 T01871019  RH  025%=      5-min Rain = 0
KAM3 141851Z 21020G25KT 19/M02 A3011 RMK A01 T01901018  RH  024%=      5-min Rain = 0
KAM3 141852Z 22023KT 19/M02 A301 RMK A01 T01911020  RH  024%=      5-min Rain = 0
KAM3 141853Z 22024G30KT 19/M02 A301 RMK A01 T01881021  RH  024%=      5-min Rain = 0
KAM3 141854Z 21024KT 19/M02 A301 RMK A01 T01861020  RH  025%=      5-min Rain = 0
KAM3 141855Z 21022KT 19/M02 A301 RMK A01 T01871020  RH  025%=      5-min Rain = 0
KAM3 141856Z 21021KT 19/M02 A301 RMK A01 T01861021  RH  025%=      5-min Rain = 0
KAM3 141857Z 21020KT 19/M02 A301 RMK A01 T01861019  RH  025%=      5-min Rain = 0
KAM3 141858Z 21021G27KT 19/M02 A301 RMK A01 T01891018  RH  024%=      5-min Rain = 0
KAM3 141859Z 19020G28KT 19/M02 A301 RMK A01 T01891019  RH  024%=      5-min Rain = 0
KAM3 141900Z 20025KT 19/M02 A3009 RMK A01 T01891019  RH  024%=      5-min Rain = 0
KAM3 141901Z 20019G24KT 19/M02 A301 RMK A01 T01881019  RH  025%=      5-min Rain = 0
KAM3 141902Z 21021KT 19/M02 A301 RMK A01 T01901017  RH  025%=      5-min Rain = 0
KAM3 141903Z 21021KT 19/M02 A3009 RMK A01 T01911018  RH  024%=      5-min Rain = 0
KAM3 141904Z 22023KT 19/M02 A3009 RMK A01 T01911018  RH  024%=      5-min Rain = 0
KAM3 141905Z 20020KT 19/M02 A3009 RMK A01 T01911017  RH  024%=      5-min Rain = 0
KAM3 141906Z 21024KT 19/M02 A3009 RMK A01 T01931017  RH  024%=      5-min Rain = 0
KAM3 141907Z 22022G27KT 19/M02 A3009 RMK A01 T01931018  RH  024%=      5-min Rain = 0
KAM3 141908Z 22019KT 19/M02 A3009 RMK A01 T01901018  RH  024%=      5-min Rain = 0
KAM3 141909Z 21016G21KT 19/M02 A3009 RMK A01 T01891017  RH  025%=      5-min Rain = 0
KAM3 141910Z 21018G23KT 19/M02 A3009 RMK A01 T01931015  RH  024%=      5-min Rain = 0
KAM3 141911Z 20023KT 20/M02 A3009 RMK A01 T01961015  RH  024%=      5-min Rain = 0
KAM3 141912Z 19021G26KT 19/M02 A3008 RMK A01 T01931019  RH  024%=      5-min Rain = 0
KAM3 141913Z 20016KT 19/M02 A3009 RMK A01 T01871019  RH  025%=      5-min Rain = 0
KAM3 141914Z 21021G28KT 19/M02 A3008 RMK A01 T01871017  RH  025%=      5-min Rain = 0
KAM3 141915Z 20024G29KT 19/M02 A3008 RMK A01 T01921016  RH  025%=      5-min Rain = 0
KAM3 141916Z 21020KT 19/M02 A3008 RMK A01 T01931016  RH  024%=      5-min Rain = 0
KAM3 141917Z 21019KT 19/M02 A3008 RMK A01 T01941015  RH  024%=      5-min Rain = 0
KAM3 141918Z 21021G26KT 20/M01 A3008 RMK A01 T01971014  RH  024%=      5-min Rain = 0
KAM3 141919Z 21021G26KT 20/M02 A3008 RMK A01 T01981016  RH  024%=      5-min Rain = 0
KAM3 141920Z 20024KT 19/M02 A3008 RMK A01 T01921019  RH  024%=      5-min Rain = 0
KAM3 141921Z 19023KT 19/M02 A3008 RMK A01 T01881018  RH  025%=      5-min Rain = 0
KAM3 141922Z 20019KT 19/M02 A3008 RMK A01 T01871017  RH  025%=      5-min Rain = 0
KAM3 141923Z 22020KT 19/M02 A3008 RMK A01 T01901015  RH  025%=      5-min Rain = 0
KAM3 141924Z 21022KT 19/M02 A3008 RMK A01 T01931016  RH  024%=      5-min Rain = 0
KAM3 141925Z 19020KT 19/M02 A3008 RMK A01 T01921017  RH  024%=      5-min Rain = 0
KAM3 141926Z 19019KT 19/M02 A3007 RMK A01 T01891018  RH  025%=      5-min Rain = 0
KAM3 141927Z 21019KT 19/M02 A3008 RMK A01 T01851019  RH  025%=      5-min Rain = 0
KAM3 141928Z 21019G24KT 18/M02 A3007 RMK A01 T01831020  RH  025%=      5-min Rain = 0
KAM3 141929Z 19020KT 18/M02 A3007 RMK A01 T01801019  RH  026%=      5-min Rain = 0
KAM3 141930Z 20023KT 18/M02 A3007 RMK A01 T01801018  RH  026%=      5-min Rain = 0
KAM3 141931Z 20021G28KT 18/M02 A3007 RMK A01 T01831016  RH  026%=      5-min Rain = 0
KAM3 141932Z 20018G24KT 19/M02 A3007 RMK A01 T01871015  RH  025%=      5-min Rain = 0
KAM3 141933Z 20021KT 19/M01 A3007 RMK A01 T01921014  RH  025%=      5-min Rain = 0
KAM3 141934Z 20018KT 19/M02 A3007 RMK A01 T01941015  RH  024%=      5-min Rain = 0
KAM3 141935Z 20021KT 20/M01 A3007 RMK A01 T01971014  RH  024%=      5-min Rain = 0
KAM3 141936Z 18020KT 20/M02 A3007 RMK A01 T01991016  RH  023%=      5-min Rain = 0
KAM3 141937Z 19020G25KT 20/M02 A3007 RMK A01 T01981016  RH  024%=      5-min Rain = 0
KAM3 141938Z 19017G23KT 20/M02 A3007 RMK A01 T01981016  RH  024%=      5-min Rain = 0
KAM3 141939Z 19017G23KT 20/M02 A3007 RMK A01 T02001015  RH  023%=      5-min Rain = 0
KAM3 141940Z 20021G29KT 20/M02 A3006 RMK A01 T02031015  RH  023%=      5-min Rain = 0
KAM3 141941Z 21022KT 20/M02 A3006 RMK A01 T02031015  RH  023%=      5-min Rain = 0
KAM3 141942Z 20018KT 20/M02 A3006 RMK A01 T02021015  RH  023%=      5-min Rain = 0
KAM3 141943Z 19018G23KT 20/M01 A3006 RMK A01 T02031013  RH  023%=      5-min Rain = 0
KAM3 141944Z 20018KT 21/M02 A3006 RMK A01 T02051015  RH  023%=      5-min Rain = 0
KAM3 141945Z 21024KT 20/M02 A3006 RMK A01 T02021016  RH  023%=      5-min Rain = 0
KAM3 141946Z 21023KT 20/M02 A3006 RMK A01 T02001016  RH  023%=      5-min Rain = 0
KAM3 141947Z 21025KT 20/M02 A3006 RMK A01 T02011015  RH  023%=      5-min Rain = 0
KAM3 141948Z 21025G30KT 20/M02 A3006 RMK A01 T02021016  RH  023%=      5-min Rain = 0
KAM3 141949Z 20022G29KT 20/M02 A3006 RMK A01 T02011015  RH  023%=      5-min Rain = 0
KAM3 141950Z 20023KT 20/M02 A3006 RMK A01 T02011015  RH  023%=      5-min Rain = 0
KAM3 141951Z 20020KT 20/M02 A3005 RMK A01 T02001015  RH  023%=      5-min Rain = 0
KAM3 141952Z 18025G31KT 20/M02 A3005 RMK A01 T02021015  RH  023%=      5-min Rain = 0
KAM3 141953Z 19025KT 20/M02 A3005 RMK A01 T02021015  RH  023%=      5-min Rain = 0
KAM3 141954Z 19024G29KT 20/M02 A3005 RMK A01 T02011015  RH  023%=      5-min Rain = 0
KAM3 141955Z 20018KT 20/M02 A3005 RMK A01 T01991015  RH  024%=      5-min Rain = 0
KAM3 141956Z 20026KT 20/M02 A3005 RMK A01 T01991015  RH  024%=      5-min Rain = 0
KAM3 141957Z 20020G25KT 20/M02 A3005 RMK A01 T01991015  RH  024%=      5-min Rain = 0
KAM3 141958Z 21020KT 20/M01 A3005 RMK A01 T02021013  RH  023%=      5-min Rain = 0
KAM3 141959Z 20020KT 21/M01 A3005 RMK A01 T02051013  RH  023%=      5-min Rain = 0
KAM3 142000Z 20025KT 21/M01 A3005 RMK A01 T02051014  RH  023%=      5-min Rain = 0
KAM3 142001Z 20021G29KT 20/M02 A3005 RMK A01 T02021016  RH  023%=      5-min Rain = 0
KAM3 142002Z 20019G25KT 20/M02 A3005 RMK A01 T01981017  RH  023%=      5-min Rain = 0
KAM3 142003Z 20016G22KT 20/M02 A3005 RMK A01 T01951016  RH  024%=      5-min Rain = 0
KAM3 142004Z 21017G28KT 20/M01 A3004 RMK A01 T01981013  RH  024%=      5-min Rain = 0
KAM3 142005Z 21022G27KT 20/M01 A3004 RMK A01 T02041012  RH  023%=      5-min Rain = 0
KAM3 142006Z 21023G28KT 21/M01 A3004 RMK A01 T02061013  RH  023%=      5-min Rain = 0
KAM3 142007Z 21020KT 21/M01 A3004 RMK A01 T02061013  RH  023%=      5-min Rain = 0
KAM3 142008Z 20018KT 21/M01 A3004 RMK A01 T02051014  RH  023%=      5-min Rain = 0
KAM3 142009Z 20018KT 20/M01 A3004 RMK A01 T02041014  RH  023%=      5-min Rain = 0
KAM3 142010Z 20019G24KT 20/M01 A3004 RMK A01 T02031013  RH  023%=      5-min Rain = 0
KAM3 142011Z 19019KT 20/M01 A3004 RMK A01 T02041012  RH  023%=      5-min Rain = 0
KAM3 142012Z 20018G23KT 21/M01 A3004 RMK A01 T02071011  RH  023%=      5-min Rain = 0
KAM3 142013Z 19024KT 21/M01 A3003 RMK A01 T02101012  RH  022%=      5-min Rain = 0
KAM3 142014Z 19023KT 21/M02 A3003 RMK A01 T02081015  RH  022%=      5-min Rain = 0
KAM3 142015Z 19023G29KT 21/M01 A3003 RMK A01 T02051014  RH  023%=      5-min Rain = 0
KAM3 142016Z 19024KT 20/M02 A3003 RMK A01 T02041015  RH  023%=      5-min Rain = 0
KAM3 142017Z 19022G27KT 20/M01 A3003 RMK A01 T02041014  RH  023%=      5-min Rain = 0
KAM3 142018Z 20021KT 21/M01 A3003 RMK A01 T02051013  RH  023%=      5-min Rain = 0
KAM3 142019Z 19016KT 21/M01 A3003 RMK A01 T02061013  RH  023%=      5-min Rain = 0
KAM3 142020Z 19017KT 21/M01 A3003 RMK A01 T02051013  RH  023%=      5-min Rain = 0
KAM3 142021Z 19023G28KT 21/M01 A3003 RMK A01 T02061012  RH  023%=      5-min Rain = 0
KAM3 142022Z 19022G28KT 21/M01 A3003 RMK A01 T02081012  RH  023%=      5-min Rain = 0
KAM3 142023Z 19018G23KT 21/M01 A3003 RMK A01 T02091012  RH  023%=      5-min Rain = 0
KAM3 142024Z 20017KT 21/M01 A3003 RMK A01 T02101013  RH  022%=      5-min Rain = 0
KAM3 142025Z 19016KT 21/M01 A3003 RMK A01 T02091012  RH  023%=      5-min Rain = 0
KAM3 142026Z 19018G23KT 21/M01 A3003 RMK A01 T02111011  RH  022%=      5-min Rain = 0
KAM3 142027Z 20025G30KT 21/M01 A3002 RMK A01 T02131013  RH  022%=      5-min Rain = 0
KAM3 142028Z 21021G27KT 21/M01 A3002 RMK A01 T02101013  RH  022%=      5-min Rain = 0
KAM3 142029Z 20019G24KT 21/M01 A3002 RMK A01 T02101012  RH  023%=      5-min Rain = 0
KAM3 142030Z 18016G21KT 21/M01 A3002 RMK A01 T02111012  RH  022%=      5-min Rain = 0
KAM3 142031Z 19019G25KT 21/M01 A3002 RMK A01 T02121012  RH  022%=      5-min Rain = 0
KAM3 142032Z 20017KT 21/M01 A3002 RMK A01 T02121012  RH  022%=      5-min Rain = 0
KAM3 142033Z 19018KT 21/M01 A3002 RMK A01 T02121011  RH  022%=      5-min Rain = 0
KAM3 142034Z 19017G23KT 21/M01 A3002 RMK A01 T02141011  RH  022%=      5-min Rain = 0
KAM3 142035Z 20020KT 21/M01 A3002 RMK A01 T02141011  RH  022%=      5-min Rain = 0
KAM3 142036Z 20020KT 21/M01 A3002 RMK A01 T02141011  RH  022%=      5-min Rain = 0
KAM3 142037Z 20019KT 21/M01 A3002 RMK A01 T02121012  RH  022%=      5-min Rain = 0
KAM3 142038Z 20021KT 21/M01 A3002 RMK A01 T02111012  RH  022%=      5-min Rain = 0
KAM3 142039Z 18020KT 21/M01 A3001 RMK A01 T02111011  RH  023%=      5-min Rain = 0
KAM3 142040Z 18020G26KT 21/M01 A3001 RMK A01 T02111012  RH  022%=      5-min Rain = 0
KAM3 142041Z 20022G31KT 21/M01 A3001 RMK A01 T02131010  RH  022%=      5-min Rain = 0
KAM3 142042Z 19022KT 21/M01 A3001 RMK A01 T02131011  RH  022%=      5-min Rain = 0
KAM3 142043Z 19019KT 21/M01 A3001 RMK A01 T02121012  RH  022%=      5-min Rain = 0
KAM3 142044Z 20018KT 21/M01 A3001 RMK A01 T02111012  RH  022%=      5-min Rain = 0
KAM3 142045Z 21021G28KT 21/M01 A3001 RMK A01 T02121010  RH  023%=      5-min Rain = 0
KAM3 142046Z 20022G27KT 21/M01 A3001 RMK A01 T02141010  RH  022%=      5-min Rain = 0
KAM3 142047Z 21023KT 21/M01 A3001 RMK A01 T02141011  RH  022%=      5-min Rain = 0
KAM3 142048Z 20023G29KT 21/M01 A3001 RMK A01 T02111011  RH  023%=      5-min Rain = 0
KAM3 142049Z 20025KT 21/M01 A3001 RMK A01 T02111011  RH  023%=      5-min Rain = 0
KAM3 142050Z 19021G27KT 21/M01 A3001 RMK A01 T02101011  RH  023%=      5-min Rain = 0
KAM3 142051Z 20018G25KT 21/M01 A3001 RMK A01 T02081011  RH  023%=      5-min Rain = 0
KAM3 142052Z 19023KT 21/M01 A3001 RMK A01 T02091010  RH  023%=      5-min Rain = 0
KAM3 142053Z 20020G26KT 21/M01 A3001 RMK A01 T02101010  RH  023%=      5-min Rain = 0
KAM3 142054Z 21023G28KT 21/M01 A3001 RMK A01 T02121009  RH  023%=      5-min Rain = 0
KAM3 142055Z 20022G29KT 21/M01 A3001 RMK A01 T02121011  RH  022%=      5-min Rain = 0
KAM3 142056Z 20020G26KT 21/M01 A3001 RMK A01 T02101010  RH  023%=      5-min Rain = 0
KAM3 142057Z 19020G26KT 21/M01 A30 RMK A01 T02101010  RH  023%=      5-min Rain = 0
KAM3 142058Z 19023KT 21/M01 A30 RMK A01 T02111010  RH  023%=      5-min Rain = 0
KAM3 142059Z 19018KT 21/M01 A30 RMK A01 T02101010  RH  023%=      5-min Rain = 0
KAM3 142100Z 20022G29KT 21/M01 A30 RMK A01 T02111009  RH  023%=      5-min Rain = 0
KAM3 142101Z 19021KT 21/M01 A30 RMK A01 T02141010  RH  022%=      5-min Rain = 0
KAM3 142102Z 19022KT 21/M01 A30 RMK A01 T02131010  RH  022%=      5-min Rain = 0
KAM3 142103Z 20023KT 21/M01 A30 RMK A01 T02121010  RH  023%=      5-min Rain = 0
KAM3 142104Z 19023KT 21/M01 A30 RMK A01 T02121010  RH  023%=      5-min Rain = 0
KAM3 142105Z 19023KT 21/M01 A30 RMK A01 T02101010  RH  023%=      5-min Rain = 0
KAM3 142106Z 20021KT 21/M01 A30 RMK A01 T02091010  RH  023%=      5-min Rain = 0
KAM3 142107Z 21023G28KT 21/M01 A30 RMK A01 T02101010  RH  023%=      5-min Rain = 0
KAM3 142108Z 21021KT 21/M01 A30 RMK A01 T02111010  RH  023%=      5-min Rain = 0
KAM3 142109Z 20021KT 21/M01 A30 RMK A01 T02121009  RH  023%=      5-min Rain = 0
KAM3 142110Z 18019G26KT 21/M01 A30 RMK A01 T02131010  RH  022%=      5-min Rain = 0
KAM3 142111Z 20020G26KT 21/M01 A30 RMK A01 T02141009  RH  022%=      5-min Rain = 0
KAM3 142112Z 20023G30KT 22/M01 A30 RMK A01 T02151009  RH  022%=      5-min Rain = 0
KAM3 142113Z 19023G31KT 21/M01 A30 RMK A01 T02141010  RH  022%=      5-min Rain = 0
KAM3 142114Z 19022KT 21/M01 A30 RMK A01 T02121009  RH  023%=      5-min Rain = 0
KAM3 142115Z 20020G25KT 21/M01 A2999 RMK A01 T02111009  RH  023%=      5-min Rain = 0
KAM3 142116Z 19018KT 21/M01 A2999 RMK A01 T02131010  RH  022%=      5-min Rain = 0
KAM3 142117Z 18022G28KT 21/M01 A2999 RMK A01 T02141009  RH  022%=      5-min Rain = 0
KAM3 142118Z 19027KT 22/M01 A2999 RMK A01 T02151011  RH  022%=      5-min Rain = 0
KAM3 142119Z 20025KT 21/M01 A2999 RMK A01 T02141010  RH  022%=      5-min Rain = 0
KAM3 142120Z 19018KT 21/M01 A2999 RMK A01 T02121010  RH  023%=      5-min Rain = 0
KAM3 142121Z 19018G25KT 21/M01 A2999 RMK A01 T02101010  RH  023%=      5-min Rain = 0
KAM3 142122Z 19022KT 21/M01 A2999 RMK A01 T02111008  RH  023%=      5-min Rain = 0
KAM3 142123Z 19024KT 21/M01 A2999 RMK A01 T02131009  RH  023%=      5-min Rain = 0
KAM3 142124Z 20023G29KT 21/M01 A2999 RMK A01 T02121009  RH  023%=      5-min Rain = 0
KAM3 142125Z 19023G28KT 21/M01 A2999 RMK A01 T02121009  RH  023%=      5-min Rain = 0
KAM3 142126Z 18027KT 21/M01 A2999 RMK A01 T02111009  RH  023%=      5-min Rain = 0
KAM3 142127Z 19023KT 21/M01 A2999 RMK A01 T02121010  RH  023%=      5-min Rain = 0
KAM3 142128Z 19019KT 21/M01 A2999 RMK A01 T02111010  RH  023%=      5-min Rain = 0
KAM3 142129Z 19020KT 21/M01 A2999 RMK A01 T02111010  RH  023%=      5-min Rain = 0
KAM3 142130Z 19018G23KT 21/M01 A2999 RMK A01 T02121010  RH  023%=      5-min Rain = 0
KAM3 142131Z 21022KT 22/M01 A2999 RMK A01 T02151009  RH  022%=      5-min Rain = 0
KAM3 142132Z 20022G28KT 21/M01 A2999 RMK A01 T02141009  RH  022%=      5-min Rain = 0
KAM3 142133Z 20025G30KT 21/M01 A2999 RMK A01 T02141009  RH  022%=      5-min Rain = 0
KAM3 142134Z 19019G25KT 21/M01 A2999 RMK A01 T02141010  RH  022%=      5-min Rain = 0
KAM3 142135Z 19019G29KT 21/M01 A2999 RMK A01 T02131008  RH  023%=      5-min Rain = 0
KAM3 142136Z 20023KT 21/M01 A2998 RMK A01 T02131009  RH  023%=      5-min Rain = 0
KAM3 142137Z 20021G27KT 22/M01 A2998 RMK A01 T02151010  RH  022%=      5-min Rain = 0
KAM3 142138Z 20020G26KT 22/M01 A2998 RMK A01 T02151009  RH  022%=      5-min Rain = 0
KAM3 142139Z 19019KT 22/M01 A2998 RMK A01 T02171009  RH  022%=      5-min Rain = 0
KAM3 142140Z 19020G25KT 22/M01 A2998 RMK A01 T02181008  RH  022%=      5-min Rain = 0
KAM3 142141Z 20021G27KT 22/M01 A2998 RMK A01 T02191008  RH  022%=      5-min Rain = 0
KAM3 142142Z 21023G28KT 22/M01 A2998 RMK A01 T02211010  RH  021%=      5-min Rain = 0
KAM3 142143Z 21024G29KT 22/M01 A2998 RMK A01 T02201010  RH  022%=      5-min Rain = 0
KAM3 142144Z 21019G24KT 22/M01 A2998 RMK A01 T02181010  RH  022%=      5-min Rain = 0
KAM3 142145Z 20022G28KT 22/M01 A2998 RMK A01 T02181010  RH  022%=      5-min Rain = 0
KAM3 142146Z 20019KT 22/M01 A2998 RMK A01 T02161010  RH  022%=      5-min Rain = 0
KAM3 142147Z 22024G29KT 22/M01 A2997 RMK A01 T02161009  RH  022%=      5-min Rain = 0
KAM3 142148Z 20022G29KT 22/M01 A2998 RMK A01 T02171010  RH  022%=      5-min Rain = 0
KAM3 142149Z 20021KT 22/M01 A2998 RMK A01 T02171010  RH  022%=      5-min Rain = 0
KAM3 142150Z 19026G33KT 22/M01 A2997 RMK A01 T02161010  RH  022%=      5-min Rain = 0
KAM3 142151Z 19027KT 22/M01 A2997 RMK A01 T02171009  RH  022%=      5-min Rain = 0
KAM3 142152Z 19025G31KT 22/M01 A2998 RMK A01 T02181010  RH  022%=      5-min Rain = 0
KAM3 142153Z 19020G26KT 22/M01 A2998 RMK A01 T02161010  RH  022%=      5-min Rain = 0
KAM3 142154Z 18020KT 22/M01 A2998 RMK A01 T02151010  RH  022%=      5-min Rain = 0
KAM3 142155Z 19017G24KT 22/M01 A2998 RMK A01 T02151010  RH  022%=      5-min Rain = 0
KAM3 142156Z 21020G28KT 22/M01 A2998 RMK A01 T02181009  RH  022%=      5-min Rain = 0
KAM3 142157Z 19020KT 22/M01 A2998 RMK A01 T02191010  RH  022%=      5-min Rain = 0
KAM3 142158Z 19018KT 22/M01 A2998 RMK A01 T02191010  RH  022%=      5-min Rain = 0
KAM3 142159Z 19019KT 22/M01 A2998 RMK A01 T02181009  RH  022%=      5-min Rain = 0
KAM3 142200Z 20018KT 22/M01 A2997 RMK A01 T02201008  RH  022%=      5-min Rain = 0
KAM3 142201Z 20023KT 22/M01 A2997 RMK A01 T02211010  RH  021%=      5-min Rain = 0
KAM3 142202Z 20023KT 22/M01 A2997 RMK A01 T02201011  RH  021%=      5-min Rain = 0
KAM3 142203Z 20022KT 22/M01 A2997 RMK A01 T02191010  RH  022%=      5-min Rain = 0
KAM3 142204Z 20021KT 22/M01 A2997 RMK A01 T02191011  RH  022%=      5-min Rain = 0
KAM3 142205Z 19019KT 22/M01 A2997 RMK A01 T02181009  RH  022%=      5-min Rain = 0
KAM3 142206Z 18022KT 22/M01 A2997 RMK A01 T02211008  RH  022%=      5-min Rain = 0
KAM3 142207Z 19021KT 22/M01 A2997 RMK A01 T02211009  RH  021%=      5-min Rain = 0
KAM3 142208Z 20022KT 22/M01 A2997 RMK A01 T02221009  RH  021%=      5-min Rain = 0
KAM3 142209Z 20021KT 22/M01 A2997 RMK A01 T02221010  RH  021%=      5-min Rain = 0
KAM3 142210Z 20022KT 22/M01 A2997 RMK A01 T02211010  RH  021%=      5-min Rain = 0
KAM3 142211Z 21020KT 22/M01 A2997 RMK A01 T02201010  RH  022%=      5-min Rain = 0
KAM3 142212Z 20022G28KT 22/M01 A2997 RMK A01 T02201010  RH  021%=      5-min Rain = 0
KAM3 142213Z 20025KT 22/M01 A2997 RMK A01 T02211011  RH  021%=      5-min Rain = 0
KAM3 142214Z 19022G28KT 22/M01 A2997 RMK A01 T02191010  RH  022%=      5-min Rain = 0
KAM3 142215Z 20022KT 22/M01 A2997 RMK A01 T02201010  RH  021%=      5-min Rain = 0
KAM3 142216Z 20024KT 22/M01 A2997 RMK A01 T02211011  RH  021%=      5-min Rain = 0
KAM3 142217Z 20024KT 22/M01 A2997 RMK A01 T02191010  RH  022%=      5-min Rain = 0
KAM3 142218Z 19020KT 22/M01 A2997 RMK A01 T02171010  RH  022%=      5-min Rain = 0
KAM3 142219Z 20017KT 22/M01 A2997 RMK A01 T02151010  RH  022%=      5-min Rain = 0
KAM3 142220Z 19024G32KT 22/M01 A2996 RMK A01 T02151009  RH  022%=      5-min Rain = 0
KAM3 142221Z 19025KT 22/M01 A2996 RMK A01 T02161009  RH  022%=      5-min Rain = 0
KAM3 142222Z 20022G27KT 22/M01 A2997 RMK A01 T02161009  RH  022%=      5-min Rain = 0
KAM3 142223Z 20021G30KT 22/M01 A2997 RMK A01 T02171009  RH  022%=      5-min Rain = 0
KAM3 142224Z 20026KT 22/M01 A2997 RMK A01 T02181009  RH  022%=      5-min Rain = 0
KAM3 142225Z 20023G29KT 22/M01 A2997 RMK A01 T02171010  RH  022%=      5-min Rain = 0
KAM3 142226Z 20024KT 22/M01 A2997 RMK A01 T02151010  RH  022%=      5-min Rain = 0
KAM3 142227Z 20021G28KT 21/M01 A2996 RMK A01 T02131010  RH  022%=      5-min Rain = 0
KAM3 142228Z 19021KT 21/M01 A2996 RMK A01 T02131009  RH  023%=      5-min Rain = 0
KAM3 142229Z 18020G25KT 21/M01 A2996 RMK A01 T02141009  RH  023%=      5-min Rain = 0
KAM3 142230Z 19021G26KT 22/M01 A2996 RMK A01 T02151010  RH  022%=      5-min Rain = 0
KAM3 142231Z 20023G28KT 22/M01 A2996 RMK A01 T02161009  RH  022%=      5-min Rain = 0
KAM3 142232Z 21023KT 22/M01 A2996 RMK A01 T02161010  RH  022%=      5-min Rain = 0
KAM3 142233Z 21020KT 21/M01 A2996 RMK A01 T02141011  RH  022%=      5-min Rain = 0
KAM3 142234Z 20019G28KT 21/M01 A2996 RMK A01 T02131010  RH  022%=      5-min Rain = 0
KAM3 142235Z 20024KT 21/M01 A2996 RMK A01 T02131010  RH  023%=      5-min Rain = 0
KAM3 142236Z 20024KT 21/M01 A2996 RMK A01 T02121010  RH  022%=      5-min Rain = 0
KAM3 142237Z 20023G28KT 21/M01 A2996 RMK A01 T02111010  RH  023%=      5-min Rain = 0
KAM3 142238Z 20024KT 21/M01 A2996 RMK A01 T02111010  RH  023%=      5-min Rain = 0
KAM3 142239Z 20027G32KT 21/M01 A2996 RMK A01 T02111010  RH  023%=      5-min Rain = 0
KAM3 142240Z 20026G35KT 21/M01 A2996 RMK A01 T02111010  RH  023%=      5-min Rain = 0
KAM3 142241Z 20020KT 21/M01 A2996 RMK A01 T02101010  RH  023%=      5-min Rain = 0
KAM3 142242Z 20024KT 21/M01 A2996 RMK A01 T02091010  RH  023%=      5-min Rain = 0
KAM3 142243Z 20022KT 21/M01 A2996 RMK A01 T02091010  RH  023%=      5-min Rain = 0
KAM3 142244Z 20024G31KT 21/M01 A2996 RMK A01 T02081010  RH  023%=      5-min Rain = 0
KAM3 142245Z 19026KT 21/M01 A2996 RMK A01 T02081011  RH  023%=      5-min Rain = 0
KAM3 142246Z 19020G25KT 21/M01 A2996 RMK A01 T02081011  RH  023%=      5-min Rain = 0
KAM3 142247Z 19021G27KT 21/M01 A2996 RMK A01 T02081010  RH  023%=      5-min Rain = 0
KAM3 142248Z 19019KT 21/M01 A2996 RMK A01 T02081010  RH  023%=      5-min Rain = 0
KAM3 142249Z 20023KT 21/M01 A2996 RMK A01 T02081010  RH  023%=      5-min Rain = 0
KAM3 142250Z 20023G28KT 21/M01 A2996 RMK A01 T02091011  RH  023%=      5-min Rain = 0
KAM3 142251Z 20020KT 21/M01 A2996 RMK A01 T02081011  RH  023%=      5-min Rain = 0
KAM3 142252Z 19022G27KT 21/M01 A2996 RMK A01 T02081011  RH  023%=      5-min Rain = 0
KAM3 142253Z 19018KT 21/M01 A2996 RMK A01 T02091010  RH  023%=      5-min Rain = 0
KAM3 142254Z 20021KT 21/M01 A2996 RMK A01 T02091010  RH  023%=      5-min Rain = 0
KAM3 142255Z 20022G27KT 21/M01 A2995 RMK A01 T02101010  RH  023%=      5-min Rain = 0
KAM3 142256Z 19022KT 21/M01 A2995 RMK A01 T02091010  RH  023%=      5-min Rain = 0
KAM3 142257Z 20022KT 21/M01 A2996 RMK A01 T02091011  RH  023%=      5-min Rain = 0
KAM3 142258Z 19020KT 21/M01 A2996 RMK A01 T02081011  RH  023%=      5-min Rain = 0
KAM3 142259Z 19022KT 21/M01 A2996 RMK A01 T02081010  RH  023%=      5-min Rain = 0
KAM3 142300Z 20024KT 21/M01 A2996 RMK A01 T02081010  RH  023%=      5-min Rain = 0
KAM3 142301Z 20021G26KT 21/M01 A2995 RMK A01 T02081010  RH  023%=      5-min Rain = 0
KAM3 142302Z 19022KT 21/M01 A2995 RMK A01 T02071010  RH  023%=      5-min Rain = 0
KAM3 142303Z 19024KT 21/M01 A2995 RMK A01 T02061011  RH  023%=      5-min Rain = 0
KAM3 142304Z 19023KT 21/M01 A2995 RMK A01 T02051011  RH  023%=      5-min Rain = 0
KAM3 142305Z 18019KT 21/M01 A2995 RMK A01 T02051011  RH  023%=      5-min Rain = 0
KAM3 142306Z 18020KT 21/M01 A2995 RMK A01 T02051011  RH  023%=      5-min Rain = 0
KAM3 142307Z 19020G25KT 21/M01 A2995 RMK A01 T02061010  RH  023%=      5-min Rain = 0
KAM3 142308Z 19023KT 21/M01 A2995 RMK A01 T02071010  RH  023%=      5-min Rain = 0
KAM3 142309Z 19022KT 21/M01 A2995 RMK A01 T02071010  RH  023%=      5-min Rain = 0
KAM3 142310Z 19023KT 21/M01 A2995 RMK A01 T02081010  RH  023%=      5-min Rain = 0
KAM3 142311Z 19021KT 21/M01 A2995 RMK A01 T02071010  RH  023%=      5-min Rain = 0
KAM3 142312Z 19020G25KT 21/M01 A2995 RMK A01 T02071010  RH  023%=      5-min Rain = 0
KAM3 142313Z 19022KT 21/M01 A2995 RMK A01 T02071010  RH  023%=      5-min Rain = 0
KAM3 142314Z 20022KT 21/M01 A2995 RMK A01 T02061010  RH  023%=      5-min Rain = 0
KAM3 142315Z 20024G31KT 21/M01 A2995 RMK A01 T02061010  RH  023%=      5-min Rain = 0
KAM3 142316Z 19022G29KT 21/M01 A2995 RMK A01 T02061011  RH  023%=      5-min Rain = 0
KAM3 142317Z 19023G28KT 21/M01 A2995 RMK A01 T02061011  RH  023%=      5-min Rain = 0
KAM3 142318Z 19017KT 21/M01 A2995 RMK A01 T02071010  RH  023%=      5-min Rain = 0
KAM3 142319Z 19019KT 21/M01 A2995 RMK A01 T02081010  RH  023%=      5-min Rain = 0
KAM3 142320Z 19019G24KT 21/M01 A2995 RMK A01 T02091010  RH  023%=      5-min Rain = 0
KAM3 142321Z 19023KT 21/M01 A2995 RMK A01 T02091011  RH  023%=      5-min Rain = 0
KAM3 142322Z 19020KT 21/M01 A2995 RMK A01 T02071011  RH  023%=      5-min Rain = 0
KAM3 142323Z 20020KT 21/M01 A2995 RMK A01 T02071011  RH  023%=      5-min Rain = 0
KAM3 142324Z 19020KT 21/M01 A2994 RMK A01 T02071011  RH  023%=      5-min Rain = 0
KAM3 142325Z 20022KT 21/M01 A2994 RMK A01 T02071011  RH  023%=      5-min Rain = 0
KAM3 142326Z 19020KT 21/M01 A2994 RMK A01 T02071011  RH  023%=      5-min Rain = 0
KAM3 142327Z 19019KT 21/M01 A2994 RMK A01 T02061011  RH  023%=      5-min Rain = 0
KAM3 142328Z 19022KT 21/M01 A2994 RMK A01 T02071011  RH  023%=      5-min Rain = 0
KAM3 142329Z 19020G26KT 21/M01 A2994 RMK A01 T02071012  RH  023%=      5-min Rain = 0
KAM3 142330Z 18020G25KT 21/M01 A2994 RMK A01 T02071011  RH  023%=      5-min Rain = 0
KAM3 142331Z 18019KT 21/M01 A2994 RMK A01 T02061012  RH  023%=      5-min Rain = 0
KAM3 142332Z 18019G27KT 21/M01 A2994 RMK A01 T02061011  RH  023%=      5-min Rain = 0
KAM3 142333Z 18019KT 21/M01 A2994 RMK A01 T02071011  RH  023%=      5-min Rain = 0
KAM3 142334Z 19018G23KT 21/M01 A2994 RMK A01 T02061011  RH  023%=      5-min Rain = 0
KAM3 142335Z 19021G27KT 21/M01 A2994 RMK A01 T02061011  RH  023%=      5-min Rain = 0
KAM3 142336Z 19021KT 21/M01 A2994 RMK A01 T02061012  RH  023%=      5-min Rain = 0
KAM3 142337Z 19020KT 21/M01 A2994 RMK A01 T02051012  RH  023%=      5-min Rain = 0
KAM3 142338Z 18019KT 20/M01 A2994 RMK A01 T02041013  RH  023%=      5-min Rain = 0
KAM3 142339Z 19017KT 20/M01 A2994 RMK A01 T02031012  RH  023%=      5-min Rain = 0
KAM3 142340Z 19021KT 20/M01 A2994 RMK A01 T02031012  RH  023%=      5-min Rain = 0
KAM3 142341Z 19020G25KT 20/M01 A2994 RMK A01 T02031012  RH  023%=      5-min Rain = 0
KAM3 142342Z 19015KT 20/M01 A2994 RMK A01 T02031012  RH  024%=      5-min Rain = 0
KAM3 142343Z 19020G27KT 20/M01 A2994 RMK A01 T02031012  RH  024%=      5-min Rain = 0
KAM3 142344Z 19023G28KT 20/M01 A2994 RMK A01 T02031012  RH  024%=      5-min Rain = 0
KAM3 142345Z 19020G25KT 20/M01 A2994 RMK A01 T02021012  RH  024%=      5-min Rain = 0
KAM3 142346Z 19020KT 20/M01 A2994 RMK A01 T02011012  RH  024%=      5-min Rain = 0
KAM3 142347Z 19019G24KT 20/M01 A2994 RMK A01 T02011012  RH  024%=      5-min Rain = 0
KAM3 142348Z 20018G23KT 20/M01 A2994 RMK A01 T02011012  RH  024%=      5-min Rain = 0
KAM3 142349Z 19018KT 20/M01 A2994 RMK A01 T02011012  RH  024%=      5-min Rain = 0
KAM3 142350Z 18016G23KT 20/M01 A2994 RMK A01 T02021012  RH  024%=      5-min Rain = 0
KAM3 142351Z 19021KT 20/M01 A2994 RMK A01 T02011012  RH  024%=      5-min Rain = 0
KAM3 142352Z 20019G24KT 20/M01 A2994 RMK A01 T02011012  RH  024%=      5-min Rain = 0
KAM3 142353Z 19020KT 20/M01 A2994 RMK A01 T02001012  RH  024%=      5-min Rain = 0
KAM3 142354Z 19020KT 20/M01 A2994 RMK A01 T02001013  RH  024%=      5-min Rain = 0
KAM3 142355Z 19018G23KT 20/M01 A2994 RMK A01 T01991013  RH  024%=      5-min Rain = 0
KAM3 142356Z 19015KT 20/M01 A2994 RMK A01 T01991013  RH  024%=      5-min Rain = 0
KAM3 142357Z 18015KT 20/M01 A2994 RMK A01 T01981013  RH  024%=      5-min Rain = 0
KAM3 142358Z 18015KT 20/M01 A2994 RMK A01 T01981013  RH  024%=      5-min Rain = 0
KAM3 142359Z 19018KT 20/M01 A2994 RMK A01 T01971013  RH  024%=      5-min Rain = 0
KAM3 150000Z 18019G24KT 20/M01 A2994 RMK A01 T01971013  RH  024%=      5-min Rain = 0
KAM3 150001Z 18016KT 20/M01 A2994 RMK A01 T01961013  RH  024%=      5-min Rain = 0
KAM3 150002Z 19020KT 20/M01 A2993 RMK A01 T01951014  RH  024%=      5-min Rain = 0
KAM3 150003Z 18019KT 20/M01 A2994 RMK A01 T01951013  RH  024%=      5-min Rain = 0
KAM3 150004Z 19015KT 19/M01 A2994 RMK A01 T01941014  RH  024%=      5-min Rain = 0
KAM3 150005Z 19016KT 19/M01 A2994 RMK A01 T01941014  RH  025%=      5-min Rain = 0
KAM3 150006Z 19014KT 19/M01 A2994 RMK A01 T01931014  RH  025%=      5-min Rain = 0
KAM3 150007Z 18015KT 19/M02 A2993 RMK A01 T01921015  RH  025%=      5-min Rain = 0
KAM3 150008Z 18016KT 19/M02 A2993 RMK A01 T01921015  RH  025%=      5-min Rain = 0
KAM3 150009Z 18016KT 19/M01 A2993 RMK A01 T01921014  RH  025%=      5-min Rain = 0
KAM3 150010Z 18015G20KT 19/M01 A2993 RMK A01 T01921014  RH  025%=      5-min Rain = 0
KAM3 150011Z 18017G23KT 19/M01 A2993 RMK A01 T01911014  RH  025%=      5-min Rain = 0
KAM3 150012Z 18018KT 19/M02 A2993 RMK A01 T01911015  RH  025%=      5-min Rain = 0
KAM3 150013Z 19017KT 19/M02 A2993 RMK A01 T01911015  RH  025%=      5-min Rain = 0
KAM3 150014Z 18016KT 19/M02 A2994 RMK A01 T01911015  RH  025%=      5-min Rain = 0
KAM3 150015Z 18013KT 19/M02 A2994 RMK A01 T01911015  RH  025%=      5-min Rain = 0
KAM3 150016Z 18016KT 19/M02 A2994 RMK A01 T01901015  RH  025%=      5-min Rain = 0
KAM3 150017Z 18016KT 19/M02 A2993 RMK A01 T01891015  RH  025%=      5-min Rain = 0
KAM3 150018Z 18014G19KT 19/M02 A2993 RMK A01 T01891015  RH  025%=      5-min Rain = 0
KAM3 150019Z 18017KT 19/M02 A2993 RMK A01 T01891015  RH  025%=      5-min Rain = 0
KAM3 150020Z 18017KT 19/M02 A2993 RMK A01 T01881015  RH  025%=      5-min Rain = 0
KAM3 150021Z 18017KT 19/M02 A2993 RMK A01 T01881015  RH  025%=      5-min Rain = 0
KAM3 150022Z 18015G20KT 19/M02 A2993 RMK A01 T01881015  RH  025%=      5-min Rain = 0
KAM3 150023Z 18015KT 19/M02 A2993 RMK A01 T01871015  RH  025%=      5-min Rain = 0
KAM3 150024Z 18017KT 19/M02 A2993 RMK A01 T01871015  RH  025%=      5-min Rain = 0
KAM3 150025Z 18018KT 19/M02 A2993 RMK A01 T01861016  RH  025%=      5-min Rain = 0
KAM3 150026Z 18018KT 19/M02 A2993 RMK A01 T01861016  RH  025%=      5-min Rain = 0
KAM3 150027Z 18018G25KT 19/M02 A2993 RMK A01 T01861015  RH  025%=      5-min Rain = 0
KAM3 150028Z 18019KT 19/M02 A2993 RMK A01 T01861015  RH  025%=      5-min Rain = 0
KAM3 150029Z 18017KT 19/M02 A2993 RMK A01 T01861015  RH  025%=      5-min Rain = 0
KAM3 150030Z 18017KT 19/M02 A2993 RMK A01 T01861015  RH  025%=      5-min Rain = 0
KAM3 150031Z 18015KT 19/M02 A2993 RMK A01 T01851016  RH  026%=      5-min Rain = 0
KAM3 150032Z 18014KT 19/M02 A2993 RMK A01 T01851016  RH  026%=      5-min Rain = 0
KAM3 150033Z 18017KT 18/M02 A2993 RMK A01 T01841016  RH  026%=      5-min Rain = 0
KAM3 150034Z 18021KT 18/M02 A2993 RMK A01 T01841016  RH  026%=      5-min Rain = 0
KAM3 150035Z 18019KT 19/M02 A2993 RMK A01 T01851015  RH  026%=      5-min Rain = 0
KAM3 150036Z 18015G20KT 19/M02 A2993 RMK A01 T01851015  RH  026%=      5-min Rain = 0
KAM3 150037Z 18018G23KT 18/M02 A2993 RMK A01 T01841016  RH  026%=      5-min Rain = 0
KAM3 150038Z 18018KT 18/M02 A2993 RMK A01 T01841015  RH  026%=      5-min Rain = 0
KAM3 150039Z 18019KT 18/M02 A2993 RMK A01 T01841015  RH  026%=      5-min Rain = 0
KAM3 150040Z 18018KT 18/M02 A2993 RMK A01 T01841016  RH  026%=      5-min Rain = 0
KAM3 150041Z 18017KT 18/M02 A2993 RMK A01 T01831016  RH  026%=      5-min Rain = 0
KAM3 150042Z 18015KT 18/M02 A2993 RMK A01 T01831015  RH  026%=      5-min Rain = 0
KAM3 150043Z 17016KT 18/M02 A2993 RMK A01 T01821016  RH  026%=      5-min Rain = 0
KAM3 150044Z 18016KT 18/M02 A2993 RMK A01 T01811016  RH  026%=      5-min Rain = 0
KAM3 150045Z 18016KT 18/M02 A2993 RMK A01 T01811016  RH  026%=      5-min Rain = 0
KAM3 150046Z 18013KT 18/M02 A2993 RMK A01 T01801016  RH  026%=      5-min Rain = 0
KAM3 150047Z 18018G24KT 18/M02 A2993 RMK A01 T01791016  RH  026%=      5-min Rain = 0
KAM3 150048Z 18019KT 18/M02 A2993 RMK A01 T01801015  RH  027%=      5-min Rain = 0
KAM3 150049Z 18017G22KT 18/M02 A2993 RMK A01 T01791016  RH  026%=      5-min Rain = 0
KAM3 150050Z 18020KT 18/M02 A2993 RMK A01 T01801016  RH  026%=      5-min Rain = 0
KAM3 150051Z 18018KT 18/M02 A2993 RMK A01 T01801016  RH  026%=      5-min Rain = 0
KAM3 150052Z 18015KT 18/M02 A2993 RMK A01 T01801015  RH  026%=      5-min Rain = 0
KAM3 150053Z 17015KT 18/M02 A2993 RMK A01 T01791016  RH  027%=      5-min Rain = 0
KAM3 150054Z 18016G21KT 18/M02 A2993 RMK A01 T01781016  RH  027%=      5-min Rain = 0
KAM3 150055Z 17017G22KT 18/M02 A2993 RMK A01 T01781016  RH  027%=      5-min Rain = 0
KAM3 150056Z 18016KT 18/M02 A2993 RMK A01 T01771016  RH  027%=      5-min Rain = 0
KAM3 150057Z 18016KT 18/M02 A2993 RMK A01 T01771016  RH  027%=      5-min Rain = 0
KAM3 150058Z 17017KT 18/M02 A2993 RMK A01 T01771016  RH  027%=      5-min Rain = 0
KAM3 150059Z 18015KT 18/M02 A2993 RMK A01 T01771016  RH  027%=      5-min Rain = 0
KAM3 150100Z 17016KT 18/M02 A2993 RMK A01 T01761016  RH  027%=      5-min Rain = 0
KAM3 150101Z 17014KT 18/M02 A2993 RMK A01 T01761016  RH  027%=      5-min Rain = 0
KAM3 150102Z 17016KT 18/M02 A2992 RMK A01 T01751016  RH  027%=      5-min Rain = 0
KAM3 150103Z 17016KT 17/M02 A2992 RMK A01 T01741016  RH  027%=      5-min Rain = 0
KAM3 150104Z 17016KT 17/M02 A2993 RMK A01 T01741017  RH  027%=      5-min Rain = 0
KAM3 150105Z 17017G22KT 17/M02 A2992 RMK A01 T01741016  RH  027%=      5-min Rain = 0
KAM3 150106Z 17016KT 17/M02 A2992 RMK A01 T01741016  RH  027%=      5-min Rain = 0
KAM3 150107Z 17014KT 17/M02 A2993 RMK A01 T01731016  RH  027%=      5-min Rain = 0
KAM3 150108Z 18017KT 17/M02 A2992 RMK A01 T01721017  RH  028%=      5-min Rain = 0
KAM3 150109Z 17017KT 17/M02 A2992 RMK A01 T01721016  RH  028%=      5-min Rain = 0
KAM3 150110Z 17017KT 17/M02 A2992 RMK A01 T01721017  RH  028%=      5-min Rain = 0
KAM3 150111Z 17016KT 17/M02 A2993 RMK A01 T01721017  RH  028%=      5-min Rain = 0
KAM3 150112Z 17014KT 17/M02 A2993 RMK A01 T01721017  RH  028%=      5-min Rain = 0
KAM3 150113Z 18018KT 17/M02 A2993 RMK A01 T01711017  RH  028%=      5-min Rain = 0
KAM3 150114Z 17017KT 17/M02 A2992 RMK A01 T01711017  RH  028%=      5-min Rain = 0
KAM3 150115Z 17016KT 17/M02 A2992 RMK A01 T01711017  RH  028%=      5-min Rain = 0
KAM3 150116Z 17017KT 17/M02 A2992 RMK A01 T01701017  RH  028%=      5-min Rain = 0
KAM3 150117Z 17017KT 17/M02 A2992 RMK A01 T01701017  RH  028%=      5-min Rain = 0
KAM3 150118Z 17016KT 17/M02 A2992 RMK A01 T01701017  RH  028%=      5-min Rain = 0
KAM3 150119Z 17017KT 17/M02 A2992 RMK A01 T01701017  RH  028%=      5-min Rain = 0
KAM3 150120Z 17018KT 17/M02 A2992 RMK A01 T01701017  RH  028%=      5-min Rain = 0
KAM3 150121Z 17017KT 17/M02 A2992 RMK A01 T01701017  RH  028%=      5-min Rain = 0
KAM3 150122Z 17015KT 17/M02 A2992 RMK A01 T01701017  RH  028%=      5-min Rain = 0
KAM3 150123Z 17016G21KT 17/M02 A2992 RMK A01 T01701017  RH  028%=      5-min Rain = 0
KAM3 150124Z 17013KT 17/M02 A2992 RMK A01 T01691018  RH  028%=      5-min Rain = 0
KAM3 150125Z 18017KT 17/M02 A2992 RMK A01 T01681018  RH  028%=      5-min Rain = 0
KAM3 150126Z 17015KT 17/M02 A2992 RMK A01 T01681017  RH  028%=      5-min Rain = 0
KAM3 150127Z 17014KT 17/M02 A2992 RMK A01 T01671018  RH  028%=      5-min Rain = 0
KAM3 150128Z 17016KT 17/M02 A2992 RMK A01 T01671018  RH  028%=      5-min Rain = 0
KAM3 150129Z 17015KT 17/M02 A2992 RMK A01 T01671018  RH  028%=      5-min Rain = 0
KAM3 150130Z 17016KT 17/M02 A2992 RMK A01 T01671017  RH  028%=      5-min Rain = 0
KAM3 150131Z 17015KT 17/M02 A2992 RMK A01 T01671018  RH  028%=      5-min Rain = 0
KAM3 150132Z 18017KT 17/M02 A2992 RMK A01 T01661018  RH  028%=      5-min Rain = 0
KAM3 150133Z 17016KT 17/M02 A2992 RMK A01 T01671018  RH  028%=      5-min Rain = 0
KAM3 150134Z 17016KT 17/M02 A2992 RMK A01 T01671018  RH  028%=      5-min Rain = 0
KAM3 150135Z 17017KT 17/M02 A2992 RMK A01 T01671018  RH  028%=      5-min Rain = 0
KAM3 150136Z 17014KT 17/M02 A2992 RMK A01 T01661018  RH  028%=      5-min Rain = 0
KAM3 150137Z 17013KT 17/M02 A2992 RMK A01 T01651018  RH  028%=      5-min Rain = 0
KAM3 150138Z 17013KT 16/M02 A2992 RMK A01 T01641019  RH  029%=      5-min Rain = 0
KAM3 150139Z 17013KT 16/M02 A2992 RMK A01 T01631019  RH  029%=      5-min Rain = 0
KAM3 150140Z 18012KT 16/M02 A2992 RMK A01 T01621019  RH  029%=      5-min Rain = 0
KAM3 150141Z 17012KT 16/M02 A2992 RMK A01 T01611019  RH  029%=      5-min Rain = 0
KAM3 150142Z 17012KT 16/M02 A2992 RMK A01 T01611019  RH  029%=      5-min Rain = 0
KAM3 150143Z 17011KT 16/M02 A2992 RMK A01 T01611019  RH  029%=      5-min Rain = 0
KAM3 150144Z 17011G16KT 16/M02 A2992 RMK A01 T01601019  RH  029%=      5-min Rain = 0
KAM3 150145Z 17012G17KT 16/M02 A2992 RMK A01 T01591019  RH  029%=      5-min Rain = 0
KAM3 150146Z 17014KT 16/M02 A2992 RMK A01 T01591019  RH  029%=      5-min Rain = 0
KAM3 150147Z 17014KT 16/M02 A2992 RMK A01 T01601019  RH  029%=      5-min Rain = 0
KAM3 150148Z 17014KT 16/M02 A2992 RMK A01 T01601019  RH  029%=      5-min Rain = 0
KAM3 150149Z 17014KT 16/M02 A2992 RMK A01 T01601019  RH  029%=      5-min Rain = 0
KAM3 150150Z 18013KT 16/M02 A2992 RMK A01 T01601019  RH  029%=      5-min Rain = 0
KAM3 150151Z 17014KT 16/M02 A2992 RMK A01 T01601019  RH  029%=      5-min Rain = 0
KAM3 150152Z 17015KT 16/M02 A2992 RMK A01 T01601019  RH  029%=      5-min Rain = 0
KAM3 150153Z 17014KT 16/M02 A2992 RMK A01 T01601019  RH  029%=      5-min Rain = 0
KAM3 150154Z 18015KT 16/M02 A2992 RMK A01 T01591019  RH  029%=      5-min Rain = 0
KAM3 150155Z 17018KT 16/M02 A2992 RMK A01 T01591019  RH  029%=      5-min Rain = 0
KAM3 150156Z 18018KT 16/M02 A2992 RMK A01 T01601019  RH  029%=      5-min Rain = 0
KAM3 150157Z 18017G22KT 16/M02 A2992 RMK A01 T01601019  RH  029%=      5-min Rain = 0
KAM3 150158Z 18019KT 16/M02 A2992 RMK A01 T01611019  RH  029%=      5-min Rain = 0
KAM3 150159Z 17019G24KT 16/M02 A2992 RMK A01 T01611019  RH  029%=      5-min Rain = 0
KAM3 150200Z 17016KT 16/M02 A2992 RMK A01 T01621019  RH  029%=      5-min Rain = 0
KAM3 150201Z 17018G23KT 16/M02 A2992 RMK A01 T01611019  RH  029%=      5-min Rain = 0
KAM3 150202Z 17018KT 16/M02 A2992 RMK A01 T01611019  RH  029%=      5-min Rain = 0
KAM3 150203Z 17015G20KT 16/M02 A2992 RMK A01 T01611019  RH  029%=      5-min Rain = 0
KAM3 150204Z 18017KT 16/M02 A2992 RMK A01 T01611019  RH  029%=      5-min Rain = 0
KAM3 150205Z 17019KT 16/M02 A2992 RMK A01 T01611019  RH  029%=      5-min Rain = 0
KAM3 150206Z 17017KT 16/M02 A2992 RMK A01 T01621019  RH  029%=      5-min Rain = 0
KAM3 150207Z 18017G22KT 16/M02 A2992 RMK A01 T01621019  RH  029%=      5-min Rain = 0
KAM3 150208Z 18020KT 16/M02 A2992 RMK A01 T01611019  RH  029%=      5-min Rain = 0
KAM3 150209Z 17016KT 16/M02 A2992 RMK A01 T01621019  RH  029%=      5-min Rain = 0
KAM3 150210Z 18017G22KT 16/M02 A2992 RMK A01 T01611019  RH  029%=      5-min Rain = 0
KAM3 150211Z 18018KT 16/M02 A2992 RMK A01 T01611018  RH  029%=      5-min Rain = 0
KAM3 150212Z 17017KT 16/M02 A2992 RMK A01 T01621018  RH  029%=      5-min Rain = 0
KAM3 150213Z 17019G24KT 16/M02 A2992 RMK A01 T01611019  RH  029%=      5-min Rain = 0
KAM3 150214Z 18017KT 16/M02 A2992 RMK A01 T01611019  RH  029%=      5-min Rain = 0
KAM3 150215Z 18021G27KT 16/M02 A2992 RMK A01 T01611018  RH  029%=      5-min Rain = 0
KAM3 150216Z 18021KT 16/M02 A2992 RMK A01 T01611019  RH  029%=      5-min Rain = 0
KAM3 150217Z 18021KT 16/M02 A2992 RMK A01 T01611019  RH  029%=      5-min Rain = 0
KAM3 150218Z 17019G24KT 16/M02 A2992 RMK A01 T01621018  RH  029%=      5-min Rain = 0
KAM3 150219Z 18019KT 16/M02 A2992 RMK A01 T01621019  RH  029%=      5-min Rain = 0
KAM3 150220Z 18021KT 16/M02 A2992 RMK A01 T01621018  RH  029%=      5-min Rain = 0
KAM3 150221Z 17018G23KT 16/M02 A2992 RMK A01 T01611018  RH  029%=      5-min Rain = 0
KAM3 150222Z 17022KT 16/M02 A2992 RMK A01 T01611019  RH  029%=      5-min Rain = 0
KAM3 150223Z 18019G25KT 16/M02 A2992 RMK A01 T01601019  RH  029%=      5-min Rain = 0
KAM3 150224Z 18020KT 16/M02 A2992 RMK A01 T01601019  RH  029%=      5-min Rain = 0
KAM3 150225Z 17021G26KT 16/M02 A2992 RMK A01 T01591019  RH  029%=      5-min Rain = 0
KAM3 150226Z 17018G25KT 16/M02 A2992 RMK A01 T01591019  RH  029%=      5-min Rain = 0
KAM3 150227Z 18019KT 16/M02 A2992 RMK A01 T01601019  RH  029%=      5-min Rain = 0
KAM3 150228Z 18015KT 16/M02 A2992 RMK A01 T01591019  RH  029%=      5-min Rain = 0
KAM3 150229Z 17021KT 16/M02 A2992 RMK A01 T01581019  RH  030%=      5-min Rain = 0
KAM3 150230Z 18019KT 16/M02 A2992 RMK A01 T01581019  RH  030%=      5-min Rain = 0
KAM3 150231Z 18022KT 16/M02 A2992 RMK A01 T01581019  RH  030%=      5-min Rain = 0
KAM3 150232Z 18022G27KT 16/M02 A2992 RMK A01 T01581019  RH  030%=      5-min Rain = 0
KAM3 150233Z 18020KT 16/M02 A2992 RMK A01 T01581019  RH  030%=      5-min Rain = 0
KAM3 150234Z 17021KT 16/M02 A2992 RMK A01 T01581019  RH  030%=      5-min Rain = 0
KAM3 150235Z 18019G24KT 16/M02 A2992 RMK A01 T01581019  RH  030%=      5-min Rain = 0
KAM3 150236Z 17017KT 16/M02 A2992 RMK A01 T01581019  RH  030%=      5-min Rain = 0
KAM3 150237Z 17020G25KT 16/M02 A2992 RMK A01 T01571019  RH  030%=      5-min Rain = 0
KAM3 150238Z 17020KT 16/M02 A2992 RMK A01 T01571019  RH  030%=      5-min Rain = 0
KAM3 150239Z 17020G26KT 16/M02 A2992 RMK A01 T01571019  RH  030%=      5-min Rain = 0
KAM3 150240Z 17022KT 16/M02 A2992 RMK A01 T01571019  RH  030%=      5-min Rain = 0
KAM3 150241Z 17020KT 16/M02 A2992 RMK A01 T01561019  RH  030%=      5-min Rain = 0
KAM3 150242Z 17021KT 16/M02 A2992 RMK A01 T01571019  RH  030%=      5-min Rain = 0
KAM3 150243Z 17019KT 16/M02 A2992 RMK A01 T01561019  RH  030%=      5-min Rain = 0
KAM3 150244Z 17017KT 16/M02 A2992 RMK A01 T01561019  RH  030%=      5-min Rain = 0
KAM3 150245Z 17017G23KT 16/M02 A2992 RMK A01 T01561019  RH  030%=      5-min Rain = 0
KAM3 150246Z 17020G25KT 16/M02 A2992 RMK A01 T01551019  RH  030%=      5-min Rain = 0
KAM3 150247Z 17020G25KT 16/M02 A2992 RMK A01 T01551019  RH  030%=      5-min Rain = 0
KAM3 150248Z 18022KT 16/M02 A2992 RMK A01 T01551019  RH  030%=      5-min Rain = 0
KAM3 150249Z 17021G26KT 16/M02 A2992 RMK A01 T01561019  RH  030%=      5-min Rain = 0
KAM3 150250Z 17019KT 16/M02 A2992 RMK A01 T01561019  RH  030%=      5-min Rain = 0
KAM3 150251Z 17021KT 16/M02 A2992 RMK A01 T01561019  RH  030%=      5-min Rain = 0
KAM3 150252Z 17022KT 16/M02 A2992 RMK A01 T01561019  RH  030%=      5-min Rain = 0
KAM3 150253Z 17020KT 16/M02 A2992 RMK A01 T01561019  RH  030%=      5-min Rain = 0
KAM3 150254Z 17020G25KT 16/M02 A2992 RMK A01 T01561019  RH  030%=      5-min Rain = 0
KAM3 150255Z 17020KT 16/M02 A2992 RMK A01 T01551019  RH  030%=      5-min Rain = 0
KAM3 150256Z 17020G25KT 16/M02 A2992 RMK A01 T01551020  RH  030%=      5-min Rain = 0
KAM3 150257Z 17018KT 16/M02 A2992 RMK A01 T01551019  RH  030%=      5-min Rain = 0
KAM3 150258Z 17021G26KT 15/M02 A2992 RMK A01 T01541019  RH  030%=      5-min Rain = 0
KAM3 150259Z 17022KT 15/M02 A2992 RMK A01 T01541019  RH  030%=      5-min Rain = 0
KAM3 150300Z 17018KT 15/M02 A2992 RMK A01 T01541019  RH  030%=      5-min Rain = 0
KAM3 150301Z 17021G26KT 15/M02 A2992 RMK A01 T01541019  RH  030%=      5-min Rain = 0
KAM3 150302Z 17021KT 15/M02 A2992 RMK A01 T01531020  RH  030%=      5-min Rain = 0
KAM3 150303Z 17018G24KT 15/M02 A2992 RMK A01 T01541020  RH  030%=      5-min Rain = 0
KAM3 150304Z 17020G25KT 15/M02 A2992 RMK A01 T01531020  RH  030%=      5-min Rain = 0
KAM3 150305Z 17020G25KT 15/M02 A2992 RMK A01 T01531019  RH  031%=      5-min Rain = 0
KAM3 150306Z 18018KT 15/M02 A2992 RMK A01 T01531019  RH  030%=      5-min Rain = 0
KAM3 150307Z 17020KT 15/M02 A2992 RMK A01 T01531019  RH  031%=      5-min Rain = 0
KAM3 150308Z 17019G24KT 15/M02 A2992 RMK A01 T01521019  RH  031%=      5-min Rain = 0
KAM3 150309Z 18019G24KT 15/M02 A2992 RMK A01 T01521019  RH  031%=      5-min Rain = 0
KAM3 150310Z 17021KT 15/M02 A2991 RMK A01 T01521019  RH  031%=      5-min Rain = 0
KAM3 150311Z 18020KT 15/M02 A2991 RMK A01 T01521019  RH  031%=      5-min Rain = 0
KAM3 150312Z 17019G24KT 15/M02 A2991 RMK A01 T01521019  RH  031%=      5-min Rain = 0
KAM3 150313Z 18020G26KT 15/M02 A2991 RMK A01 T01521019  RH  031%=      5-min Rain = 0
KAM3 150314Z 17019KT 15/M02 A2991 RMK A01 T01521019  RH  031%=      5-min Rain = 0
KAM3 150315Z 17019KT 15/M02 A2991 RMK A01 T01511019  RH  031%=      5-min Rain = 0
KAM3 150316Z 17019KT 15/M02 A2991 RMK A01 T01511019  RH  031%=      5-min Rain = 0
KAM3 150317Z 18020G31KT 15/M02 A2991 RMK A01 T01501019  RH  031%=      5-min Rain = 0
KAM3 150318Z 17023KT 15/M02 A2991 RMK A01 T01501019  RH  031%=      5-min Rain = 0
KAM3 150319Z 17018G24KT 15/M02 A2991 RMK A01 T01511019  RH  031%=      5-min Rain = 0
KAM3 150320Z 17020KT 15/M02 A2991 RMK A01 T01511019  RH  031%=      5-min Rain = 0
KAM3 150321Z 18019G24KT 15/M02 A2991 RMK A01 T01501019  RH  031%=      5-min Rain = 0
KAM3 150322Z 18022KT 15/M02 A2991 RMK A01 T01501019  RH  031%=      5-min Rain = 0
KAM3 150323Z 18022G27KT 15/M02 A2991 RMK A01 T01501019  RH  031%=      5-min Rain = 0
KAM3 150324Z 17019G24KT 15/M02 A2991 RMK A01 T01501019  RH  031%=      5-min Rain = 0
KAM3 150325Z 17020KT 15/M02 A2991 RMK A01 T01491019  RH  031%=      5-min Rain = 0
KAM3 150326Z 17021KT 15/M02 A2991 RMK A01 T01491019  RH  032%=      5-min Rain = 0
KAM3 150327Z 17019KT 15/M02 A2991 RMK A01 T01491019  RH  032%=      5-min Rain = 0
KAM3 150328Z 17017KT 15/M02 A2992 RMK A01 T01481019  RH  032%=      5-min Rain = 0
KAM3 150329Z 17019G24KT 15/M02 A2992 RMK A01 T01471019  RH  032%=      5-min Rain = 0
KAM3 150330Z 18020G27KT 15/M02 A2991 RMK A01 T01471019  RH  032%=      5-min Rain = 0
KAM3 150331Z 17020KT 15/M02 A2992 RMK A01 T01471019  RH  032%=      5-min Rain = 0
KAM3 150332Z 17020G25KT 15/M02 A2992 RMK A01 T01471019  RH  032%=      5-min Rain = 0
KAM3 150333Z 17019G26KT 15/M02 A2992 RMK A01 T01471019  RH  032%=      5-min Rain = 0
KAM3 150334Z 17021KT 15/M02 A2992 RMK A01 T01471019  RH  032%=      5-min Rain = 0
KAM3 150335Z 17020KT 15/M02 A2992 RMK A01 T01471018  RH  032%=      5-min Rain = 0
KAM3 150336Z 17019KT 15/M02 A2992 RMK A01 T01471018  RH  032%=      5-min Rain = 0
KAM3 150337Z 17019G24KT 15/M02 A2992 RMK A01 T01461019  RH  032%=      5-min Rain = 0
KAM3 150338Z 17017KT 15/M02 A2992 RMK A01 T01461019  RH  032%=      5-min Rain = 0
KAM3 150339Z 17019KT 15/M02 A2992 RMK A01 T01451019  RH  032%=      5-min Rain = 0
KAM3 150340Z 17016KT 15/M02 A2992 RMK A01 T01451018  RH  032%=      5-min Rain = 0
KAM3 150341Z 17020G27KT 15/M02 A2992 RMK A01 T01451018  RH  032%=      5-min Rain = 0
KAM3 150342Z 17023G28KT 15/M02 A2992 RMK A01 T01451018  RH  033%=      5-min Rain = 0
KAM3 150343Z 17017KT 15/M02 A2992 RMK A01 T01461018  RH  032%=      5-min Rain = 0
KAM3 150344Z 17020G25KT 15/M02 A2992 RMK A01 T01451018  RH  032%=      5-min Rain = 0
KAM3 150345Z 17021KT 15/M02 A2992 RMK A01 T01451018  RH  032%=      5-min Rain = 0
KAM3 150346Z 17018G23KT 15/M02 A2992 RMK A01 T01451018  RH  033%=      5-min Rain = 0
KAM3 150347Z 17020KT 15/M02 A2992 RMK A01 T01451018  RH  033%=      5-min Rain = 0
KAM3 150348Z 17023KT 14/M02 A2992 RMK A01 T01441018  RH  033%=      5-min Rain = 0
KAM3 150349Z 17018KT 15/M02 A2992 RMK A01 T01451017  RH  033%=      5-min Rain = 0
KAM3 150350Z 17018KT 15/M02 A2992 RMK A01 T01451017  RH  033%=      5-min Rain = 0
KAM3 150351Z 17019KT 15/M02 A2992 RMK A01 T01451017  RH  033%=      5-min Rain = 0
KAM3 150352Z 17017KT 14/M02 A2992 RMK A01 T01441017  RH  033%=      5-min Rain = 0
KAM3 150353Z 17017KT 14/M02 A2992 RMK A01 T01441017  RH  033%=      5-min Rain = 0
KAM3 150354Z 17020G27KT 14/M02 A2992 RMK A01 T01441017  RH  033%=      5-min Rain = 0
KAM3 150355Z 17020G26KT 14/M02 A2992 RMK A01 T01441017  RH  033%=      5-min Rain = 0
KAM3 150356Z 17020G27KT 14/M02 A2992 RMK A01 T01441017  RH  033%=      5-min Rain = 0
KAM3 150357Z 17021KT 14/M02 A2992 RMK A01 T01441017  RH  033%=      5-min Rain = 0
KAM3 150358Z 17021G26KT 15/M02 A2992 RMK A01 T01451017  RH  033%=      5-min Rain = 0
KAM3 150359Z 17021KT 15/M02 A2992 RMK A01 T01451016  RH  033%=      5-min Rain = 0
KAM3 150400Z 17022KT 15/M02 A2992 RMK A01 T01451017  RH  033%=      5-min Rain = 0
KAM3 150401Z 18019G24KT 15/M02 A2992 RMK A01 T01451016  RH  033%=      5-min Rain = 0
KAM3 150402Z 17019KT 15/M02 A2992 RMK A01 T01451016  RH  033%=      5-min Rain = 0
KAM3 150403Z 17019KT 14/M02 A2992 RMK A01 T01441017  RH  033%=      5-min Rain = 0
KAM3 150404Z 18018G23KT 14/M02 A2992 RMK A01 T01431017  RH  033%=      5-min Rain = 0
KAM3 150405Z 18018G24KT 14/M02 A2992 RMK A01 T01431016  RH  033%=      5-min Rain = 0
KAM3 150406Z 17017KT 14/M02 A2992 RMK A01 T01421017  RH  033%=      5-min Rain = 0
KAM3 150407Z 17019KT 14/M02 A2992 RMK A01 T01421017  RH  034%=      5-min Rain = 0
KAM3 150408Z 17018G23KT 14/M02 A2992 RMK A01 T01411017  RH  034%=      5-min Rain = 0
KAM3 150409Z 17018G23KT 14/M02 A2992 RMK A01 T01411016  RH  034%=      5-min Rain = 0
KAM3 150410Z 17018KT 14/M02 A2992 RMK A01 T01411016  RH  034%=      5-min Rain = 0
KAM3 150411Z 17017KT 14/M02 A2992 RMK A01 T01401017  RH  034%=      5-min Rain = 0
KAM3 150412Z 17017KT 14/M02 A2992 RMK A01 T01411016  RH  034%=      5-min Rain = 0
KAM3 150413Z 17020KT 14/M02 A2992 RMK A01 T01401016  RH  034%=      5-min Rain = 0
KAM3 150414Z 17017KT 14/M02 A2992 RMK A01 T01411016  RH  034%=      5-min Rain = 0
KAM3 150415Z 17020KT 14/M02 A2992 RMK A01 T01411016  RH  034%=      5-min Rain = 0
KAM3 150416Z 18019KT 14/M02 A2992 RMK A01 T01411016  RH  034%=      5-min Rain = 0
KAM3 150417Z 17017KT 14/M02 A2992 RMK A01 T01411016  RH  034%=      5-min Rain = 0
KAM3 150418Z 17020KT 14/M02 A2992 RMK A01 T01411015  RH  034%=      5-min Rain = 0
KAM3 150419Z 17018KT 14/M02 A2992 RMK A01 T01411015  RH  034%=      5-min Rain = 0
KAM3 150420Z 17018KT 14/M02 A2992 RMK A01 T01411015  RH  034%=      5-min Rain = 0
KAM3 150421Z 17019KT 14/M02 A2991 RMK A01 T01411015  RH  034%=      5-min Rain = 0
KAM3 150422Z 17020G28KT 14/M01 A2991 RMK A01 T01421014  RH  034%=      5-min Rain = 0
KAM3 150423Z 17022KT 14/M01 A2991 RMK A01 T01431014  RH  034%=      5-min Rain = 0
KAM3 150424Z 18022G27KT 14/M01 A2991 RMK A01 T01441014  RH  034%=      5-min Rain = 0
KAM3 150425Z 18020G25KT 14/M01 A2991 RMK A01 T01441013  RH  034%=      5-min Rain = 0
KAM3 150426Z 18021G27KT 14/M01 A2991 RMK A01 T01441013  RH  034%=      5-min Rain = 0
KAM3 150427Z 18019G25KT 14/M01 A2991 RMK A01 T01441013  RH  034%=      5-min Rain = 0
KAM3 150428Z 17018KT 14/M01 A2991 RMK A01 T01441013  RH  034%=      5-min Rain = 0
KAM3 150429Z 18021KT 14/M01 A2991 RMK A01 T01441013  RH  034%=      5-min Rain = 0
KAM3 150430Z 18021G26KT 14/M01 A2991 RMK A01 T01431013  RH  034%=      5-min Rain = 0
KAM3 150431Z 18017G26KT 14/M01 A2991 RMK A01 T01441013  RH  034%=      5-min Rain = 0
KAM3 150432Z 17019KT 14/M01 A2991 RMK A01 T01441013  RH  034%=      5-min Rain = 0
KAM3 150433Z 18019KT 14/M01 A2991 RMK A01 T01441013  RH  034%=      5-min Rain = 0
KAM3 150434Z 18019KT 14/M01 A2991 RMK A01 T01441013  RH  034%=      5-min Rain = 0
KAM3 150435Z 18019G24KT 14/M01 A2991 RMK A01 T01431012  RH  034%=      5-min Rain = 0
KAM3 150436Z 18020G25KT 14/M01 A2991 RMK A01 T01431013  RH  034%=      5-min Rain = 0
KAM3 150437Z 17022G28KT 14/M01 A2991 RMK A01 T01441012  RH  034%=      5-min Rain = 0
KAM3 150438Z 17019KT 14/M01 A2991 RMK A01 T01441012  RH  034%=      5-min Rain = 0
KAM3 150439Z 18019G27KT 14/M01 A299 RMK A01 T01441012  RH  034%=      5-min Rain = 0
KAM3 150440Z 18019KT 14/M01 A299 RMK A01 T01441012  RH  034%=      5-min Rain = 0
KAM3 150441Z 18020G27KT 14/M01 A299 RMK A01 T01441012  RH  034%=      5-min Rain = 0
KAM3 150442Z 18023KT 14/M01 A299 RMK A01 T01441011  RH  034%=      5-min Rain = 0
KAM3 150443Z 18021G27KT 15/M01 A299 RMK A01 T01451011  RH  034%=      5-min Rain = 0
KAM3 150444Z 17020G25KT 15/M01 A299 RMK A01 T01451011  RH  034%=      5-min Rain = 0
KAM3 150445Z 18020G26KT 15/M01 A299 RMK A01 T01451011  RH  034%=      5-min Rain = 0
KAM3 150446Z 18023G29KT 15/M01 A299 RMK A01 T01451011  RH  034%=      5-min Rain = 0
KAM3 150447Z 18021KT 15/M01 A299 RMK A01 T01451011  RH  034%=      5-min Rain = 0
KAM3 150448Z 18022KT 15/M01 A299 RMK A01 T01451011  RH  034%=      5-min Rain = 0
KAM3 150449Z 18020KT 15/M01 A299 RMK A01 T01451010  RH  034%=      5-min Rain = 0
KAM3 150450Z 18020KT 15/M01 A299 RMK A01 T01451010  RH  034%=      5-min Rain = 0
KAM3 150451Z 18023G28KT 15/M01 A299 RMK A01 T01451011  RH  034%=      5-min Rain = 0
KAM3 150452Z 18022KT 15/M01 A299 RMK A01 T01451010  RH  034%=      5-min Rain = 0
KAM3 150453Z 18022G29KT 15/M01 A299 RMK A01 T01451010  RH  034%=      5-min Rain = 0
KAM3 150454Z 18024KT 15/M01 A299 RMK A01 T01451010  RH  034%=      5-min Rain = 0
KAM3 150455Z 18021G27KT 15/M01 A299 RMK A01 T01461010  RH  034%=      5-min Rain = 0
KAM3 150456Z 18024G31KT 15/M01 A299 RMK A01 T01461010  RH  034%=      5-min Rain = 0
KAM3 150457Z 18024G30KT 15/M01 A299 RMK A01 T01451010  RH  034%=      5-min Rain = 0
KAM3 150458Z 18020KT 15/M01 A299 RMK A01 T01451010  RH  034%=      5-min Rain = 0
KAM3 150459Z 18022KT 15/M01 A299 RMK A01 T01461009  RH  034%=      5-min Rain = 0

Page generated in 0.0722 seconds.